Wetterdaten: Dienstag, 06.11.2018
Datum Zeit Temp. Aussen Temp. o. S. +5cm Feuchte Auss Luftdruck Regen Sonnenschein Regendauer Solar Windben Empfang
06.11.2018 00:00 9,7 C 8,9 C 8,3 C 94 % 1004,7 hPa 0,0 l/m 0 min 0 min 0 W/m 12,9 km/h (3 Bft) 97,87 %
06.11.2018 00:02 9,7 C 8,9 C 8,3 C 94 % 1004,7 hPa 0,0 l/m 0 min 0 min 0 W/m 6,4 km/h (2 Bft) 94,87 %
06.11.2018 00:04 9,7 C 8,9 C 8,3 C 94 % 1004,6 hPa 0,0 l/m 0 min 0 min 0 W/m 9,7 km/h (2 Bft) 97,83 %
06.11.2018 00:07 9,7 C 8,9 C 8,3 C 94 % 1004,6 hPa 0,0 l/m 0 min 0 min 0 W/m 12,9 km/h (3 Bft) 97,83 %
06.11.2018 00:08 9,7 C 8,9 C 8,3 C 94 % 1004,5 hPa 0,0 l/m 0 min 0 min 0 W/m 12,9 km/h (3 Bft) 96,91 %
06.11.2018 00:10 9,6 C 8,9 C 8,3 C 94 % 1004,6 hPa 0,0 l/m 0 min 0 min 0 W/m 9,7 km/h (2 Bft) 95,83 %
06.11.2018 00:12 9,6 C 8,9 C 8,3 C 94 % 1004,5 hPa 0,0 l/m 0 min 0 min 0 W/m 6,4 km/h (2 Bft) 97,30 %
06.11.2018 00:14 9,6 C 8,9 C 8,3 C 94 % 1004,6 hPa 0,0 l/m 0 min 0 min 0 W/m 9,7 km/h (2 Bft) 97,92 %
06.11.2018 00:16 9,6 C 8,9 C 8,3 C 94 % 1004,6 hPa 0,0 l/m 0 min 0 min 0 W/m 9,7 km/h (2 Bft) 97,87 %
06.11.2018 00:18 9,6 C 8,9 C 8,3 C 94 % 1004,7 hPa 0,0 l/m 0 min 0 min 0 W/m 12,9 km/h (3 Bft) 97,92 %
06.11.2018 00:20 9,6 C 8,9 C 8,3 C 94 % 1004,7 hPa 0,0 l/m 0 min 0 min 0 W/m 9,7 km/h (2 Bft) 98,31 %
06.11.2018 00:22 9,6 C 8,9 C 8,3 C 94 % 1004,8 hPa 0,0 l/m 0 min 0 min 0 W/m 6,4 km/h (2 Bft) 97,87 %
06.11.2018 00:24 9,6 C 8,9 C 8,3 C 94 % 1004,8 hPa 0,0 l/m 0 min 0 min 0 W/m 9,7 km/h (2 Bft) 96,67 %
06.11.2018 00:26 9,5 C 8,3 C 8,3 C 94 % 1004,8 hPa 0,0 l/m 0 min 0 min 0 W/m 9,7 km/h (2 Bft) 97,87 %
06.11.2018 00:28 9,5 C 8,3 C 7,8 C 94 % 1004,8 hPa 0,0 l/m 0 min 0 min 0 W/m 6,4 km/h (2 Bft) 97,92 %
06.11.2018 00:30 9,5 C 8,3 C 7,8 C 94 % 1004,8 hPa 0,0 l/m 0 min 0 min 0 W/m 9,7 km/h (2 Bft) 97,83 %
06.11.2018 00:32 9,4 C 8,3 C 7,8 C 94 % 1004,8 hPa 0,0 l/m 0 min 0 min 0 W/m 6,4 km/h (2 Bft) 98,00 %
06.11.2018 00:34 9,4 C 8,3 C 7,8 C 94 % 1004,8 hPa 0,0 l/m 0 min 0 min 0 W/m 6,4 km/h (2 Bft) 100,00 %
06.11.2018 00:38 9,4 C 8,3 C 7,8 C 94 % 1004,8 hPa 0,0 l/m 0 min 0 min 0 W/m 16,1 km/h (3 Bft) 100,00 %
06.11.2018 00:40 9,4 C 8,3 C 7,8 C 94 % 1004,8 hPa 0,0 l/m 0 min 0 min 0 W/m 9,7 km/h (2 Bft) 100,00 %
06.11.2018 00:42 9,4 C 8,3 C 7,8 C 94 % 1004,8 hPa 0,0 l/m 0 min 0 min 0 W/m 12,9 km/h (3 Bft) 97,87 %
06.11.2018 00:44 9,4 C 8,3 C 7,8 C 94 % 1004,9 hPa 0,0 l/m 0 min 0 min 0 W/m 12,9 km/h (3 Bft) 100,00 %
06.11.2018 00:46 9,4 C 8,3 C 7,8 C 94 % 1004,9 hPa 0,0 l/m 0 min 0 min 0 W/m 12,9 km/h (3 Bft) 100,00 %
06.11.2018 00:48 9,3 C 8,3 C 7,8 C 94 % 1005,0 hPa 0,0 l/m 0 min 0 min 0 W/m 12,9 km/h (3 Bft) 100,00 %
06.11.2018 00:50 9,3 C 8,3 C 7,8 C 94 % 1005,0 hPa 0,0 l/m 0 min 0 min 0 W/m 6,4 km/h (2 Bft) 100,00 %
06.11.2018 00:52 9,3 C 8,3 C 7,8 C 94 % 1005,0 hPa 0,0 l/m 0 min 0 min 0 W/m 9,7 km/h (2 Bft) 100,00 %
06.11.2018 00:54 9,3 C 8,3 C 7,8 C 94 % 1005,0 hPa 0,0 l/m 0 min 0 min 0 W/m 12,9 km/h (3 Bft) 97,92 %
06.11.2018 00:56 9,3 C 8,3 C 7,8 C 94 % 1004,9 hPa 0,0 l/m 0 min 0 min 0 W/m 9,7 km/h (2 Bft) 97,92 %
06.11.2018 00:58 9,3 C 8,3 C 7,8 C 94 % 1005,0 hPa 0,0 l/m 0 min 0 min 0 W/m 9,7 km/h (2 Bft) 100,00 %
06.11.2018 01:00 9,3 C 8,3 C 7,8 C 94 % 1004,9 hPa 0,0 l/m 0 min 0 min 0 W/m 9,7 km/h (2 Bft) 100,00 %
06.11.2018 01:02 9,3 C 8,3 C 7,8 C 94 % 1005,1 hPa 0,0 l/m 0 min 0 min 0 W/m 6,4 km/h (2 Bft) 100,00 %
06.11.2018 01:04 9,3 C 8,3 C 7,8 C 94 % 1005,0 hPa 0,0 l/m 0 min 0 min 0 W/m 6,4 km/h (2 Bft) 100,00 %
06.11.2018 01:08 9,2 C 8,3 C 7,8 C 94 % 1005,0 hPa 0,0 l/m 0 min 0 min 0 W/m 12,9 km/h (3 Bft) 97,89 %
06.11.2018 01:10 9,2 C 8,3 C 7,8 C 94 % 1005,0 hPa 0,0 l/m 0 min 0 min 0 W/m 9,7 km/h (2 Bft) 97,87 %
06.11.2018 01:12 9,2 C 8,3 C 7,8 C 94 % 1004,9 hPa 0,0 l/m 0 min 0 min 0 W/m 6,4 km/h (2 Bft) 93,62 %
06.11.2018 01:14 9,2 C 8,3 C 7,8 C 94 % 1004,8 hPa 0,0 l/m 0 min 0 min 0 W/m 9,7 km/h (2 Bft) 97,83 %
06.11.2018 01:16 9,2 C 8,3 C 7,8 C 94 % 1004,8 hPa 0,0 l/m 0 min 0 min 0 W/m 9,7 km/h (2 Bft) 95,12 %
06.11.2018 01:18 9,2 C 8,3 C 7,8 C 94 % 1004,8 hPa 0,0 l/m 0 min 0 min 0 W/m 12,9 km/h (3 Bft) 95,83 %
06.11.2018 01:20 9,2 C 8,3 C 7,8 C 94 % 1004,9 hPa 0,0 l/m 0 min 0 min 0 W/m 12,9 km/h (3 Bft) 97,87 %
06.11.2018 01:22 9,2 C 8,3 C 7,8 C 94 % 1004,9 hPa 0,0 l/m 0 min 0 min 0 W/m 6,4 km/h (2 Bft) 93,88 %
06.11.2018 01:24 9,1 C 8,3 C 7,8 C 94 % 1004,9 hPa 0,0 l/m 0 min 0 min 0 W/m 6,4 km/h (2 Bft) 97,92 %
06.11.2018 01:26 9,1 C 8,3 C 7,8 C 94 % 1004,9 hPa 0,0 l/m 0 min 0 min 0 W/m 9,7 km/h (2 Bft) 97,87 %
06.11.2018 01:28 9,1 C 8,3 C 7,8 C 94 % 1004,9 hPa 0,0 l/m 0 min 0 min 0 W/m 9,7 km/h (2 Bft) 95,83 %
06.11.2018 01:30 9,1 C 8,3 C 7,8 C 94 % 1004,9 hPa 0,0 l/m 0 min 0 min 0 W/m 9,7 km/h (2 Bft) 97,87 %
06.11.2018 01:32 9,1 C 8,3 C 7,8 C 94 % 1004,8 hPa 0,0 l/m 0 min 0 min 0 W/m 3,2 km/h (1 Bft) 97,62 %
06.11.2018 01:34 9,1 C 7,8 C 7,8 C 94 % 1004,8 hPa 0,0 l/m 0 min 0 min 0 W/m 3,2 km/h (1 Bft) 95,83 %
06.11.2018 01:38 9,0 C 7,8 C 7,8 C 95 % 1004,8 hPa 0,0 l/m 0 min 0 min 0 W/m 12,9 km/h (3 Bft) 96,84 %
06.11.2018 01:40 9,0 C 7,8 C 7,8 C 95 % 1004,8 hPa 0,0 l/m 0 min 0 min 0 W/m 9,7 km/h (2 Bft) 97,92 %
06.11.2018 01:42 9,0 C 7,8 C 7,8 C 95 % 1004,7 hPa 0,0 l/m 0 min 0 min 0 W/m 6,4 km/h (2 Bft) 97,87 %
06.11.2018 01:44 9,0 C 7,8 C 7,8 C 95 % 1004,7 hPa 0,0 l/m 0 min 0 min 0 W/m 9,7 km/h (2 Bft) 97,92 %
06.11.2018 01:46 8,9 C 7,8 C 7,2 C 95 % 1004,7 hPa 0,0 l/m 0 min 0 min 0 W/m 9,7 km/h (2 Bft) 97,87 %
06.11.2018 01:48 8,9 C 7,8 C 7,2 C 95 % 1004,7 hPa 0,0 l/m 0 min 0 min 0 W/m 6,4 km/h (2 Bft) 97,87 %
06.11.2018 01:50 8,9 C 7,8 C 7,8 C 95 % 1004,7 hPa 0,0 l/m 0 min 0 min 0 W/m 9,7 km/h (2 Bft) 96,55 %
06.11.2018 01:52 8,9 C 7,8 C 7,8 C 95 % 1004,7 hPa 0,0 l/m 0 min 0 min 0 W/m 9,7 km/h (2 Bft) 100,00 %
06.11.2018 01:54 8,9 C 7,8 C 7,2 C 95 % 1004,7 hPa 0,0 l/m 0 min 0 min 0 W/m 3,2 km/h (1 Bft) 100,00 %
06.11.2018 01:56 8,9 C 7,8 C 7,2 C 95 % 1004,7 hPa 0,0 l/m 0 min 0 min 0 W/m 6,4 km/h (2 Bft) 100,00 %
06.11.2018 01:58 8,9 C 7,8 C 7,2 C 95 % 1004,7 hPa 0,0 l/m 0 min 0 min 0 W/m 9,7 km/h (2 Bft) 100,00 %
06.11.2018 02:00 8,9 C 7,8 C 7,2 C 95 % 1004,8 hPa 0,0 l/m 0 min 0 min 0 W/m 6,4 km/h (2 Bft) 97,92 %
06.11.2018 02:02 8,8 C 7,8 C 7,2 C 95 % 1004,7 hPa 0,0 l/m 0 min 0 min 0 W/m 6,4 km/h (2 Bft) 100,00 %
06.11.2018 02:04 8,8 C 7,8 C 7,2 C 95 % 1004,7 hPa 0,0 l/m 0 min 0 min 0 W/m 12,9 km/h (3 Bft) 100,00 %
06.11.2018 02:08 8,8 C 7,8 C 7,2 C 95 % 1004,7 hPa 0,0 l/m 0 min 0 min 0 W/m 9,7 km/h (2 Bft) 96,81 %
06.11.2018 02:10 8,8 C 7,8 C 7,2 C 95 % 1004,8 hPa 0,0 l/m 0 min 0 min 0 W/m 9,7 km/h (2 Bft) 97,87 %
06.11.2018 02:12 8,8 C 7,8 C 7,2 C 95 % 1004,9 hPa 0,0 l/m 0 min 0 min 0 W/m 12,9 km/h (3 Bft) 97,87 %
06.11.2018 02:14 8,7 C 7,8 C 7,2 C 95 % 1004,9 hPa 0,0 l/m 0 min 0 min 0 W/m 9,7 km/h (2 Bft) 97,83 %
06.11.2018 02:16 8,7 C 7,8 C 7,2 C 95 % 1004,8 hPa 0,0 l/m 0 min 0 min 0 W/m 12,9 km/h (3 Bft) 97,87 %
06.11.2018 02:18 8,7 C 7,8 C 7,2 C 95 % 1004,8 hPa 0,0 l/m 0 min 0 min 0 W/m 6,4 km/h (2 Bft) 93,62 %
06.11.2018 02:20 8,7 C 7,8 C 7,2 C 95 % 1004,8 hPa 0,0 l/m 0 min 0 min 0 W/m 9,7 km/h (2 Bft) 98,31 %
06.11.2018 02:22 8,7 C 7,8 C 7,2 C 95 % 1004,8 hPa 0,0 l/m 0 min 0 min 0 W/m 9,7 km/h (2 Bft) 94,29 %
06.11.2018 02:24 8,7 C 7,8 C 7,2 C 95 % 1004,9 hPa 0,0 l/m 0 min 0 min 0 W/m 9,7 km/h (2 Bft) 97,83 %
06.11.2018 02:26 8,7 C 7,8 C 7,2 C 95 % 1004,9 hPa 0,0 l/m 0 min 0 min 0 W/m 16,1 km/h (3 Bft) 95,74 %
06.11.2018 02:28 8,7 C 7,8 C 7,2 C 95 % 1004,9 hPa 0,0 l/m 0 min 0 min 0 W/m 16,1 km/h (3 Bft) 95,74 %
06.11.2018 02:30 8,7 C 7,8 C 7,2 C 95 % 1004,8 hPa 0,0 l/m 0 min 0 min 0 W/m 16,1 km/h (3 Bft) 97,87 %
06.11.2018 02:32 8,7 C 7,8 C 7,2 C 95 % 1004,8 hPa 0,0 l/m 0 min 0 min 0 W/m 6,4 km/h (2 Bft) 95,74 %
06.11.2018 02:34 8,7 C 7,8 C 7,2 C 95 % 1004,9 hPa 0,0 l/m 0 min 0 min 0 W/m 9,7 km/h (2 Bft) 97,87 %
06.11.2018 02:38 8,6 C 7,8 C 7,2 C 95 % 1004,8 hPa 0,0 l/m 0 min 0 min 0 W/m 9,7 km/h (2 Bft) 95,70 %
06.11.2018 02:40 8,7 C 7,8 C 7,2 C 95 % 1004,8 hPa 0,0 l/m 0 min 0 min 0 W/m 6,4 km/h (2 Bft) 93,62 %
06.11.2018 02:42 8,6 C 7,8 C 7,2 C 95 % 1004,8 hPa 0,0 l/m 0 min 0 min 0 W/m 12,9 km/h (3 Bft) 97,87 %
06.11.2018 02:44 8,6 C 7,8 C 7,2 C 95 % 1004,8 hPa 0,0 l/m 0 min 0 min 0 W/m 9,7 km/h (2 Bft) 95,74 %
06.11.2018 02:46 8,6 C 7,8 C 7,2 C 95 % 1004,8 hPa 0,0 l/m 0 min 0 min 0 W/m 16,1 km/h (3 Bft) 95,74 %
06.11.2018 02:48 8,6 C 7,8 C 7,8 C 95 % 1004,8 hPa 0,0 l/m 0 min 0 min 0 W/m 12,9 km/h (3 Bft) 93,48 %
06.11.2018 02:50 8,7 C 8,3 C 7,8 C 95 % 1004,7 hPa 0,0 l/m 0 min 0 min 0 W/m 19,3 km/h (3 Bft) 94,92 %
06.11.2018 02:52 8,7 C 8,3 C 7,8 C 95 % 1004,7 hPa 0,0 l/m 0 min 0 min 0 W/m 16,1 km/h (3 Bft) 94,29 %
06.11.2018 02:54 8,7 C 8,3 C 7,8 C 95 % 1004,6 hPa 0,0 l/m 0 min 0 min 0 W/m 9,7 km/h (2 Bft) 95,74 %
06.11.2018 02:56 8,7 C 8,3 C 7,8 C 96 % 1004,6 hPa 0,0 l/m 0 min 0 min 0 W/m 16,1 km/h (3 Bft) 95,74 %
06.11.2018 02:58 8,7 C 8,3 C 7,8 C 96 % 1004,6 hPa 0,0 l/m 0 min 0 min 0 W/m 22,5 km/h (4 Bft) 95,74 %
06.11.2018 03:00 8,7 C 8,3 C 7,8 C 96 % 1004,6 hPa 0,0 l/m 0 min 0 min 0 W/m 12,9 km/h (3 Bft) 95,65 %
06.11.2018 03:02 8,7 C 8,3 C 7,8 C 96 % 1004,6 hPa 0,0 l/m 0 min 0 min 0 W/m 6,4 km/h (2 Bft) 93,62 %
06.11.2018 03:04 8,7 C 8,3 C 7,8 C 96 % 1004,7 hPa 0,0 l/m 0 min 0 min 0 W/m 9,7 km/h (2 Bft) 95,74 %
06.11.2018 03:08 8,8 C 8,3 C 7,8 C 96 % 1004,6 hPa 0,0 l/m 0 min 0 min 0 W/m 9,7 km/h (2 Bft) 94,68 %
06.11.2018 03:10 8,8 C 8,3 C 7,8 C 96 % 1004,6 hPa 0,0 l/m 0 min 0 min 0 W/m 16,1 km/h (3 Bft) 97,87 %
06.11.2018 03:12 8,8 C 8,3 C 7,8 C 96 % 1004,5 hPa 0,0 l/m 0 min 0 min 0 W/m 19,3 km/h (3 Bft) 97,83 %
06.11.2018 03:14 8,8 C 8,3 C 7,8 C 96 % 1004,5 hPa 0,0 l/m 0 min 0 min 0 W/m 9,7 km/h (2 Bft) 97,87 %
06.11.2018 03:16 8,8 C 8,3 C 7,8 C 96 % 1004,5 hPa 0,0 l/m 0 min 0 min 0 W/m 9,7 km/h (2 Bft) 95,74 %
06.11.2018 03:18 8,8 C 8,3 C 7,8 C 96 % 1004,4 hPa 0,0 l/m 0 min 0 min 0 W/m 9,7 km/h (2 Bft) 95,74 %
06.11.2018 03:20 8,8 C 8,3 C 7,8 C 96 % 1004,5 hPa 0,0 l/m 0 min 0 min 0 W/m 16,1 km/h (3 Bft) 95,74 %
06.11.2018 03:22 8,9 C 8,3 C 7,8 C 96 % 1004,5 hPa 0,0 l/m 0 min 0 min 0 W/m 16,1 km/h (3 Bft) 97,87 %
06.11.2018 03:24 8,9 C 8,3 C 7,8 C 96 % 1004,4 hPa 0,0 l/m 0 min 0 min 0 W/m 12,9 km/h (3 Bft) 100,00 %
06.11.2018 03:26 8,9 C 8,3 C 7,8 C 96 % 1004,4 hPa 0,0 l/m 0 min 0 min 0 W/m 9,7 km/h (2 Bft) 95,74 %
06.11.2018 03:28 8,9 C 8,3 C 7,8 C 96 % 1004,4 hPa 0,0 l/m 0 min 0 min 0 W/m 12,9 km/h (3 Bft) 100,00 %
06.11.2018 03:30 9,0 C 8,3 C 7,8 C 96 % 1004,4 hPa 0,0 l/m 0 min 0 min 0 W/m 16,1 km/h (3 Bft) 100,00 %
06.11.2018 03:32 9,0 C 8,3 C 7,8 C 96 % 1004,4 hPa 0,0 l/m 0 min 0 min 0 W/m 16,1 km/h (3 Bft) 100,00 %
06.11.2018 03:34 9,0 C 8,3 C 7,8 C 96 % 1004,4 hPa 0,0 l/m 0 min 0 min 0 W/m 12,9 km/h (3 Bft) 100,00 %
06.11.2018 03:38 9,0 C 8,3 C 7,8 C 96 % 1004,4 hPa 0,0 l/m 0 min 0 min 0 W/m 16,1 km/h (3 Bft) 100,00 %
06.11.2018 03:40 9,0 C 8,3 C 7,8 C 96 % 1004,3 hPa 0,0 l/m 0 min 0 min 0 W/m 12,9 km/h (3 Bft) 100,00 %
06.11.2018 03:42 9,0 C 8,3 C 7,8 C 96 % 1004,3 hPa 0,0 l/m 0 min 0 min 0 W/m 12,9 km/h (3 Bft) 100,00 %
06.11.2018 03:44 9,0 C 8,3 C 7,8 C 96 % 1004,3 hPa 0,0 l/m 0 min 0 min 0 W/m 9,7 km/h (2 Bft) 100,00 %
06.11.2018 03:46 9,0 C 8,3 C 7,8 C 96 % 1004,2 hPa 0,0 l/m 0 min 0 min 0 W/m 3,2 km/h (1 Bft) 100,00 %
06.11.2018 03:48 9,0 C 8,3 C 7,8 C 96 % 1004,2 hPa 0,0 l/m 0 min 0 min 0 W/m 6,4 km/h (2 Bft) 100,00 %
06.11.2018 03:50 9,0 C 8,3 C 7,8 C 96 % 1004,1 hPa 0,0 l/m 0 min 0 min 0 W/m 3,2 km/h (1 Bft) 100,00 %
06.11.2018 03:52 9,0 C 8,3 C 7,8 C 96 % 1004,0 hPa 0,0 l/m 0 min 0 min 0 W/m 3,2 km/h (1 Bft) 95,74 %
06.11.2018 03:54 9,0 C 8,3 C 7,8 C 96 % 1004,0 hPa 0,0 l/m 0 min 0 min 0 W/m 16,1 km/h (3 Bft) 97,87 %
06.11.2018 03:56 9,0 C 8,3 C 7,8 C 96 % 1004,2 hPa 0,0 l/m 0 min 0 min 0 W/m 12,9 km/h (3 Bft) 97,87 %
06.11.2018 03:58 9,0 C 8,3 C 7,8 C 96 % 1004,3 hPa 0,0 l/m 0 min 0 min 0 W/m 9,7 km/h (2 Bft) 97,83 %
06.11.2018 04:00 9,0 C 8,9 C 7,8 C 96 % 1004,3 hPa 0,0 l/m 0 min 0 min 0 W/m 9,7 km/h (2 Bft) 97,87 %
06.11.2018 04:02 9,1 C 8,9 C 7,8 C 96 % 1004,3 hPa 0,0 l/m 0 min 0 min 0 W/m 3,2 km/h (1 Bft) 100,00 %
06.11.2018 04:04 9,1 C 8,9 C 7,8 C 96 % 1004,4 hPa 0,0 l/m 0 min 0 min 0 W/m 6,4 km/h (2 Bft) 97,87 %
06.11.2018 04:08 9,1 C 8,9 C 7,8 C 96 % 1004,6 hPa 0,0 l/m 0 min 0 min 0 W/m 9,7 km/h (2 Bft) 96,81 %
06.11.2018 04:10 9,1 C 8,9 C 8,3 C 96 % 1004,5 hPa 0,0 l/m 0 min 0 min 0 W/m 16,1 km/h (3 Bft) 97,83 %
06.11.2018 04:12 9,1 C 8,9 C 8,3 C 96 % 1004,6 hPa 0,0 l/m 0 min 0 min 0 W/m 0,0 km/h (0 Bft) 95,74 %
06.11.2018 04:14 9,1 C 8,9 C 8,3 C 96 % 1004,6 hPa 0,0 l/m 0 min 0 min 0 W/m 6,4 km/h (2 Bft) 97,87 %
06.11.2018 04:16 9,1 C 8,9 C 8,3 C 96 % 1004,5 hPa 0,0 l/m 0 min 0 min 0 W/m 16,1 km/h (3 Bft) 97,87 %
06.11.2018 04:18 9,1 C 8,9 C 8,3 C 96 % 1004,3 hPa 0,0 l/m 0 min 0 min 0 W/m 9,7 km/h (2 Bft) 97,87 %
06.11.2018 04:20 9,2 C 8,9 C 8,3 C 96 % 1004,4 hPa 0,0 l/m 0 min 0 min 0 W/m 19,3 km/h (3 Bft) 97,87 %
06.11.2018 04:22 9,2 C 8,9 C 8,3 C 96 % 1004,3 hPa 0,0 l/m 0 min 0 min 0 W/m 22,5 km/h (4 Bft) 97,83 %
06.11.2018 04:24 9,2 C 8,9 C 8,3 C 96 % 1004,2 hPa 0,0 l/m 0 min 0 min 0 W/m 12,9 km/h (3 Bft) 97,87 %
06.11.2018 04:26 9,2 C 8,9 C 8,3 C 96 % 1004,3 hPa 0,0 l/m 0 min 0 min 0 W/m 6,4 km/h (2 Bft) 97,87 %
06.11.2018 04:28 9,2 C 8,9 C 8,3 C 96 % 1004,2 hPa 0,0 l/m 0 min 0 min 0 W/m 16,1 km/h (3 Bft) 97,87 %
06.11.2018 04:30 9,2 C 8,9 C 8,3 C 96 % 1004,4 hPa 0,0 l/m 0 min 0 min 0 W/m 6,4 km/h (2 Bft) 95,74 %
06.11.2018 04:32 9,2 C 8,9 C 8,3 C 96 % 1004,6 hPa 0,0 l/m 0 min 0 min 0 W/m 6,4 km/h (2 Bft) 97,87 %
06.11.2018 04:34 9,3 C 8,9 C 8,3 C 96 % 1004,5 hPa 0,0 l/m 0 min 0 min 0 W/m 9,7 km/h (2 Bft) 97,83 %
06.11.2018 04:38 9,3 C 8,9 C 8,3 C 96 % 1004,5 hPa 0,0 l/m 0 min 0 min 0 W/m 9,7 km/h (2 Bft) 98,94 %
06.11.2018 04:40 9,3 C 8,9 C 8,3 C 96 % 1004,6 hPa 0,0 l/m 0 min 0 min 0 W/m 6,4 km/h (2 Bft) 100,00 %
06.11.2018 04:42 9,3 C 8,9 C 8,3 C 96 % 1004,6 hPa 0,0 l/m 0 min 0 min 0 W/m 6,4 km/h (2 Bft) 95,74 %
06.11.2018 04:44 9,3 C 8,9 C 8,3 C 96 % 1004,7 hPa 0,0 l/m 0 min 0 min 0 W/m 9,7 km/h (2 Bft) 100,00 %
06.11.2018 04:46 9,3 C 8,9 C 8,3 C 96 % 1004,7 hPa 0,0 l/m 0 min 0 min 0 W/m 9,7 km/h (2 Bft) 100,00 %
06.11.2018 04:48 9,3 C 8,9 C 8,3 C 96 % 1004,8 hPa 0,0 l/m 0 min 0 min 0 W/m 16,1 km/h (3 Bft) 100,00 %
06.11.2018 04:50 9,3 C 8,9 C 8,3 C 96 % 1004,8 hPa 0,0 l/m 0 min 0 min 0 W/m 12,9 km/h (3 Bft) 97,87 %
06.11.2018 04:52 9,3 C 8,9 C 8,3 C 96 % 1004,8 hPa 0,0 l/m 0 min 0 min 0 W/m 9,7 km/h (2 Bft) 100,00 %
06.11.2018 04:54 9,3 C 8,9 C 8,3 C 96 % 1004,8 hPa 0,0 l/m 0 min 0 min 0 W/m 19,3 km/h (3 Bft) 100,00 %
06.11.2018 04:56 9,3 C 8,9 C 8,3 C 96 % 1004,8 hPa 0,0 l/m 0 min 0 min 0 W/m 9,7 km/h (2 Bft) 100,00 %
06.11.2018 04:58 9,3 C 8,9 C 8,3 C 96 % 1004,7 hPa 0,0 l/m 0 min 0 min 0 W/m 9,7 km/h (2 Bft) 100,00 %
06.11.2018 05:00 9,3 C 8,9 C 8,3 C 96 % 1004,7 hPa 0,0 l/m 0 min 0 min 0 W/m 22,5 km/h (4 Bft) 100,00 %
06.11.2018 05:02 9,3 C 8,9 C 8,3 C 95 % 1004,8 hPa 0,0 l/m 0 min 0 min 0 W/m 9,7 km/h (2 Bft) 95,74 %
06.11.2018 05:04 9,3 C 8,9 C 8,3 C 95 % 1004,7 hPa 0,0 l/m 0 min 0 min 0 W/m 16,1 km/h (3 Bft) 97,87 %
06.11.2018 05:05 9,3 C 8,9 C 8,3 C 95 % 1004,7 hPa 0,0 l/m 0 min 0 min 0 W/m 16,1 km/h (3 Bft) 100,00 %
06.11.2018 05:10 9,3 C 8,9 C 8,3 C 95 % 1004,7 hPa 0,0 l/m 0 min 0 min 0 W/m 9,7 km/h (2 Bft) 100,00 %
06.11.2018 05:12 9,3 C 8,9 C 8,3 C 95 % 1004,7 hPa 0,0 l/m 0 min 0 min 0 W/m 3,2 km/h (1 Bft) 100,00 %
06.11.2018 05:14 9,3 C 8,9 C 8,3 C 95 % 1004,6 hPa 0,0 l/m 0 min 0 min 0 W/m 12,9 km/h (3 Bft) 93,48 %
06.11.2018 05:19 9,3 C 8,9 C 8,3 C 95 % 1004,5 hPa 0,0 l/m 0 min 0 min 0 W/m 12,9 km/h (3 Bft) 100,00 %
06.11.2018 05:20 9,3 C 8,9 C 8,3 C 95 % 1004,6 hPa 0,0 l/m 0 min 0 min 0 W/m 9,7 km/h (2 Bft) 100,00 %
06.11.2018 05:22 9,4 C 8,9 C 8,3 C 95 % 1004,5 hPa 0,0 l/m 0 min 0 min 0 W/m 16,1 km/h (3 Bft) 97,87 %
06.11.2018 05:24 9,4 C 8,9 C 8,3 C 95 % 1004,6 hPa 0,0 l/m 0 min 0 min 0 W/m 9,7 km/h (2 Bft) 97,14 %
06.11.2018 05:26 9,4 C 8,9 C 8,3 C 95 % 1004,5 hPa 0,0 l/m 0 min 0 min 0 W/m 9,7 km/h (2 Bft) 97,87 %
06.11.2018 05:28 9,4 C 8,9 C 8,3 C 95 % 1004,7 hPa 0,0 l/m 0 min 0 min 0 W/m 12,9 km/h (3 Bft) 100,00 %
06.11.2018 05:30 9,4 C 8,9 C 8,3 C 95 % 1004,7 hPa 0,0 l/m 0 min 0 min 0 W/m 12,9 km/h (3 Bft) 100,00 %
06.11.2018 05:32 9,4 C 8,9 C 8,3 C 95 % 1004,6 hPa 0,0 l/m 0 min 0 min 0 W/m 6,4 km/h (2 Bft) 97,83 %
06.11.2018 05:34 9,4 C 8,9 C 8,3 C 95 % 1004,6 hPa 0,0 l/m 0 min 0 min 0 W/m 6,4 km/h (2 Bft) 97,87 %
06.11.2018 05:38 9,4 C 8,9 C 8,3 C 95 % 1004,6 hPa 0,0 l/m 0 min 0 min 0 W/m 12,9 km/h (3 Bft) 96,81 %
06.11.2018 05:40 9,4 C 8,9 C 8,3 C 95 % 1004,5 hPa 0,0 l/m 0 min 0 min 0 W/m 9,7 km/h (2 Bft) 95,74 %
06.11.2018 05:42 9,4 C 8,9 C 8,3 C 95 % 1004,6 hPa 0,0 l/m 0 min 0 min 0 W/m 16,1 km/h (3 Bft) 95,74 %
06.11.2018 05:44 9,4 C 8,9 C 8,3 C 95 % 1004,5 hPa 0,0 l/m 0 min 0 min 0 W/m 19,3 km/h (3 Bft) 93,48 %
06.11.2018 05:46 9,4 C 8,9 C 8,3 C 95 % 1004,6 hPa 0,0 l/m 0 min 0 min 0 W/m 9,7 km/h (2 Bft) 95,74 %
06.11.2018 05:48 9,4 C 8,9 C 8,3 C 95 % 1004,6 hPa 0,0 l/m 0 min 0 min 0 W/m 12,9 km/h (3 Bft) 93,62 %
06.11.2018 05:50 9,5 C 8,9 C 8,3 C 95 % 1004,5 hPa 0,0 l/m 0 min 0 min 0 W/m 12,9 km/h (3 Bft) 96,61 %
06.11.2018 05:52 9,5 C 8,9 C 8,3 C 95 % 1004,6 hPa 0,0 l/m 0 min 0 min 0 W/m 12,9 km/h (3 Bft) 95,65 %
06.11.2018 05:54 9,5 C 8,9 C 8,3 C 95 % 1004,5 hPa 0,0 l/m 0 min 0 min 0 W/m 9,7 km/h (2 Bft) 94,44 %
06.11.2018 05:56 9,5 C 8,9 C 8,3 C 95 % 1004,5 hPa 0,0 l/m 0 min 0 min 0 W/m 16,1 km/h (3 Bft) 95,65 %
06.11.2018 05:58 9,5 C 8,9 C 8,3 C 95 % 1004,4 hPa 0,0 l/m 0 min 0 min 0 W/m 9,7 km/h (2 Bft) 95,74 %
06.11.2018 06:00 9,5 C 8,9 C 8,3 C 95 % 1004,5 hPa 0,0 l/m 0 min 0 min 0 W/m 9,7 km/h (2 Bft) 95,74 %
06.11.2018 06:02 9,5 C 8,9 C 8,3 C 95 % 1004,5 hPa 0,0 l/m 0 min 0 min 0 W/m 16,1 km/h (3 Bft) 95,74 %
06.11.2018 06:04 9,5 C 8,9 C 8,3 C 95 % 1004,5 hPa 0,0 l/m 0 min 0 min 0 W/m 12,9 km/h (3 Bft) 95,74 %
06.11.2018 06:08 9,5 C 9,4 C 8,3 C 95 % 1004,5 hPa 0,0 l/m 0 min 0 min 0 W/m 16,1 km/h (3 Bft) 94,62 %
06.11.2018 06:10 9,6 C 9,4 C 8,3 C 95 % 1004,4 hPa 0,0 l/m 0 min 0 min 0 W/m 12,9 km/h (3 Bft) 95,74 %
06.11.2018 06:12 9,6 C 9,4 C 8,3 C 95 % 1004,4 hPa 0,0 l/m 0 min 0 min 0 W/m 22,5 km/h (4 Bft) 93,62 %
06.11.2018 06:14 9,6 C 9,4 C 8,3 C 95 % 1004,3 hPa 0,0 l/m 0 min 0 min 0 W/m 16,1 km/h (3 Bft) 95,74 %
06.11.2018 06:16 9,6 C 9,4 C 8,3 C 95 % 1004,3 hPa 0,0 l/m 0 min 0 min 0 W/m 9,7 km/h (2 Bft) 95,74 %
06.11.2018 06:18 9,6 C 9,4 C 8,3 C 95 % 1004,3 hPa 0,0 l/m 0 min 0 min 0 W/m 16,1 km/h (3 Bft) 95,74 %
06.11.2018 06:20 9,6 C 9,4 C 8,3 C 95 % 1004,2 hPa 0,0 l/m 0 min 0 min 0 W/m 12,9 km/h (3 Bft) 94,83 %
06.11.2018 06:22 9,6 C 8,9 C 8,3 C 95 % 1004,3 hPa 0,0 l/m 0 min 0 min 0 W/m 3,2 km/h (1 Bft) 97,87 %
06.11.2018 06:24 9,6 C 8,9 C 8,3 C 95 % 1004,2 hPa 0,0 l/m 0 min 0 min 0 W/m 0,0 km/h (0 Bft) 100,00 %
06.11.2018 06:26 9,6 C 8,9 C 8,3 C 95 % 1004,3 hPa 0,0 l/m 0 min 0 min 0 W/m 9,7 km/h (2 Bft) 95,74 %
06.11.2018 06:28 9,6 C 8,9 C 8,3 C 95 % 1004,2 hPa 0,0 l/m 0 min 0 min 0 W/m 9,7 km/h (2 Bft) 97,87 %
06.11.2018 06:30 9,6 C 8,9 C 8,3 C 95 % 1004,2 hPa 0,0 l/m 0 min 0 min 0 W/m 3,2 km/h (1 Bft) 93,62 %
06.11.2018 06:32 9,6 C 8,9 C 8,3 C 95 % 1004,2 hPa 0,0 l/m 0 min 0 min 0 W/m 3,2 km/h (1 Bft) 95,65 %
06.11.2018 06:34 9,6 C 8,9 C 8,3 C 95 % 1004,2 hPa 0,0 l/m 0 min 0 min 0 W/m 9,7 km/h (2 Bft) 95,74 %
06.11.2018 06:38 9,6 C 8,9 C 8,3 C 95 % 1004,2 hPa 0,0 l/m 0 min 0 min 0 W/m 6,4 km/h (2 Bft) 95,74 %
06.11.2018 06:40 9,6 C 8,9 C 8,3 C 95 % 1004,1 hPa 0,0 l/m 0 min 0 min 0 W/m 6,4 km/h (2 Bft) 95,74 %
06.11.2018 06:42 9,6 C 8,9 C 8,3 C 95 % 1004,2 hPa 0,0 l/m 0 min 0 min 0 W/m 6,4 km/h (2 Bft) 97,83 %
06.11.2018 06:44 9,6 C 9,4 C 8,3 C 95 % 1004,3 hPa 0,0 l/m 0 min 0 min 0 W/m 9,7 km/h (2 Bft) 97,87 %
06.11.2018 06:46 9,6 C 9,4 C 8,3 C 95 % 1004,4 hPa 0,0 l/m 0 min 0 min 0 W/m 9,7 km/h (2 Bft) 97,87 %
06.11.2018 06:48 9,6 C 9,4 C 8,3 C 95 % 1004,5 hPa 0,0 l/m 0 min 0 min 0 W/m 6,4 km/h (2 Bft) 93,62 %
06.11.2018 06:50 9,6 C 9,4 C 8,3 C 95 % 1004,5 hPa 0,0 l/m 0 min 0 min 0 W/m 6,4 km/h (2 Bft) 94,83 %
06.11.2018 06:52 9,6 C 9,4 C 8,3 C 95 % 1004,4 hPa 0,0 l/m 0 min 0 min 0 W/m 12,9 km/h (3 Bft) 97,22 %
06.11.2018 06:54 9,6 C 9,4 C 8,3 C 95 % 1004,5 hPa 0,0 l/m 0 min 0 min 0 W/m 12,9 km/h (3 Bft) 95,65 %
06.11.2018 06:56 9,6 C 8,9 C 8,3 C 95 % 1004,6 hPa 0,0 l/m 0 min 0 min 0 W/m 9,7 km/h (2 Bft) 97,87 %
06.11.2018 06:58 9,6 C 8,9 C 8,3 C 95 % 1004,6 hPa 0,0 l/m 0 min 0 min 0 W/m 6,4 km/h (2 Bft) 95,74 %
06.11.2018 07:00 9,6 C 8,9 C 8,3 C 95 % 1004,7 hPa 0,0 l/m 0 min 0 min 0 W/m 6,4 km/h (2 Bft) 95,74 %
06.11.2018 07:02 9,6 C 8,9 C 8,3 C 94 % 1004,6 hPa 0,0 l/m 0 min 0 min 0 W/m 9,7 km/h (2 Bft) 97,87 %
06.11.2018 07:04 9,6 C 8,9 C 8,3 C 94 % 1004,7 hPa 0,0 l/m 0 min 0 min 0 W/m 12,9 km/h (3 Bft) 95,74 %
06.11.2018 07:08 9,6 C 8,9 C 8,3 C 94 % 1004,7 hPa 0,0 l/m 0 min 0 min 0 W/m 12,9 km/h (3 Bft) 98,00 %
06.11.2018 07:10 9,6 C 8,9 C 8,3 C 94 % 1004,7 hPa 0,0 l/m 0 min 0 min 0 W/m 16,1 km/h (3 Bft) 93,62 %
06.11.2018 07:12 9,6 C 8,9 C 8,3 C 94 % 1004,7 hPa 0,0 l/m 0 min 0 min 0 W/m 9,7 km/h (2 Bft) 97,87 %
06.11.2018 07:14 9,6 C 8,9 C 8,3 C 94 % 1004,8 hPa 0,0 l/m 0 min 0 min 0 W/m 9,7 km/h (2 Bft) 97,87 %
06.11.2018 07:16 9,6 C 8,9 C 8,3 C 94 % 1004,8 hPa 0,0 l/m 0 min 0 min 0 W/m 12,9 km/h (3 Bft) 100,00 %
06.11.2018 07:18 9,6 C 9,4 C 8,3 C 94 % 1004,9 hPa 0,0 l/m 0 min 0 min 0 W/m 12,9 km/h (3 Bft) 100,00 %
06.11.2018 07:20 9,6 C 9,4 C 8,3 C 94 % 1004,8 hPa 0,0 l/m 0 min 0 min 0 W/m 16,1 km/h (3 Bft) 100,00 %
06.11.2018 07:22 9,6 C 9,4 C 8,3 C 94 % 1004,8 hPa 0,0 l/m 0 min 0 min 0 W/m 6,4 km/h (2 Bft) 97,87 %
06.11.2018 07:24 9,6 C 8,9 C 8,3 C 94 % 1004,9 hPa 0,0 l/m 0 min 0 min 0 W/m 9,7 km/h (2 Bft) 97,87 %
06.11.2018 07:26 9,6 C 8,9 C 8,3 C 94 % 1004,9 hPa 0,0 l/m 0 min 0 min 0 W/m 9,7 km/h (2 Bft) 100,00 %
06.11.2018 07:28 9,6 C 8,9 C 8,3 C 94 % 1004,7 hPa 0,0 l/m 0 min 0 min 0 W/m 9,7 km/h (2 Bft) 100,00 %
06.11.2018 07:30 9,6 C 8,9 C 8,3 C 94 % 1004,8 hPa 0,0 l/m 0 min 0 min 0 W/m 6,4 km/h (2 Bft) 100,00 %
06.11.2018 07:32 9,6 C 8,9 C 8,3 C 94 % 1004,8 hPa 0,0 l/m 0 min 0 min 0 W/m 9,7 km/h (2 Bft) 97,87 %
06.11.2018 07:34 9,6 C 8,9 C 8,3 C 94 % 1004,7 hPa 0,0 l/m 0 min 0 min 0 W/m 9,7 km/h (2 Bft) 100,00 %
06.11.2018 07:38 9,6 C 8,9 C 8,3 C 94 % 1004,8 hPa 0,0 l/m 0 min 0 min 0 W/m 9,7 km/h (2 Bft) 100,00 %
06.11.2018 07:40 9,6 C 8,9 C 8,3 C 94 % 1004,8 hPa 0,0 l/m 0 min 0 min 0 W/m 6,4 km/h (2 Bft) 100,00 %
06.11.2018 07:42 9,6 C 8,9 C 8,3 C 94 % 1004,8 hPa 0,0 l/m 0 min 0 min 0 W/m 9,7 km/h (2 Bft) 100,00 %
06.11.2018 07:44 9,6 C 8,9 C 8,3 C 94 % 1004,9 hPa 0,0 l/m 0 min 0 min 1 W/m 6,4 km/h (2 Bft) 100,00 %
06.11.2018 07:46 9,6 C 8,9 C 8,3 C 94 % 1004,8 hPa 0,0 l/m 0 min 0 min 5 W/m 6,4 km/h (2 Bft) 100,00 %
06.11.2018 07:48 9,5 C 8,3 C 7,8 C 94 % 1004,8 hPa 0,0 l/m 0 min 0 min 5 W/m 3,2 km/h (1 Bft) 100,00 %
06.11.2018 07:50 9,5 C 8,3 C 7,8 C 94 % 1004,8 hPa 0,0 l/m 0 min 0 min 7 W/m 3,2 km/h (1 Bft) 100,00 %
06.11.2018 07:52 9,5 C 8,3 C 7,8 C 94 % 1004,9 hPa 0,0 l/m 0 min 0 min 8 W/m 3,2 km/h (1 Bft) 100,00 %
06.11.2018 07:54 9,5 C 8,3 C 7,8 C 94 % 1004,9 hPa 0,0 l/m 0 min 0 min 10 W/m 0,0 km/h (0 Bft) 100,00 %
06.11.2018 07:56 9,5 C 8,3 C 7,8 C 94 % 1004,9 hPa 0,0 l/m 0 min 0 min 11 W/m 0,0 km/h (0 Bft) 100,00 %
06.11.2018 07:58 9,4 C 8,3 C 7,8 C 94 % 1004,9 hPa 0,0 l/m 0 min 0 min 12 W/m 0,0 km/h (0 Bft) 100,00 %
06.11.2018 08:00 9,4 C 8,3 C 7,8 C 94 % 1005,0 hPa 0,0 l/m 0 min 0 min 14 W/m 0,0 km/h (0 Bft) 100,00 %
06.11.2018 08:02 9,4 C 8,3 C 7,8 C 94 % 1005,1 hPa 0,0 l/m 0 min 0 min 14 W/m 0,0 km/h (0 Bft) 100,00 %
06.11.2018 08:04 9,4 C 8,3 C 7,8 C 94 % 1005,0 hPa 0,0 l/m 0 min 0 min 17 W/m 3,2 km/h (1 Bft) 97,87 %
06.11.2018 08:08 9,4 C 8,3 C 7,8 C 93 % 1005,1 hPa 0,0 l/m 0 min 0 min 18 W/m 9,7 km/h (2 Bft) 100,00 %
06.11.2018 08:10 9,3 C 8,3 C 7,8 C 93 % 1005,0 hPa 0,0 l/m 0 min 0 min 20 W/m 6,4 km/h (2 Bft) 100,00 %
06.11.2018 08:12 9,3 C 8,3 C 7,8 C 93 % 1005,0 hPa 0,0 l/m 0 min 0 min 23 W/m 9,7 km/h (2 Bft) 100,00 %
06.11.2018 08:14 9,3 C 8,3 C 7,8 C 93 % 1005,1 hPa 0,0 l/m 0 min 0 min 25 W/m 9,7 km/h (2 Bft) 100,00 %
06.11.2018 08:16 9,3 C 8,9 C 7,8 C 93 % 1005,2 hPa 0,0 l/m 0 min 0 min 27 W/m 9,7 km/h (2 Bft) 100,00 %
06.11.2018 08:18 9,3 C 8,9 C 7,8 C 93 % 1005,2 hPa 0,0 l/m 0 min 0 min 30 W/m 3,2 km/h (1 Bft) 97,87 %
06.11.2018 08:20 9,3 C 8,9 C 7,8 C 93 % 1005,3 hPa 0,0 l/m 0 min 0 min 33 W/m 9,7 km/h (2 Bft) 100,00 %
06.11.2018 08:22 9,2 C 8,9 C 8,3 C 93 % 1005,4 hPa 0,0 l/m 0 min 0 min 33 W/m 12,9 km/h (3 Bft) 100,00 %
06.11.2018 08:24 9,2 C 8,9 C 8,3 C 93 % 1005,4 hPa 0,0 l/m 0 min 0 min 33 W/m 6,4 km/h (2 Bft) 100,00 %
06.11.2018 08:26 9,2 C 8,9 C 8,3 C 93 % 1005,5 hPa 0,0 l/m 0 min 0 min 33 W/m 9,7 km/h (2 Bft) 97,87 %
06.11.2018 08:28 9,2 C 9,4 C 8,3 C 94 % 1005,6 hPa 0,0 l/m 0 min 0 min 34 W/m 12,9 km/h (3 Bft) 97,87 %
06.11.2018 08:30 9,3 C 9,4 C 8,3 C 94 % 1005,7 hPa 0,0 l/m 0 min 0 min 36 W/m 12,9 km/h (3 Bft) 95,74 %
06.11.2018 08:32 9,3 C 9,4 C 8,9 C 94 % 1005,7 hPa 0,0 l/m 0 min 0 min 37 W/m 9,7 km/h (2 Bft) 97,87 %
06.11.2018 08:34 9,3 C 9,4 C 8,9 C 94 % 1005,7 hPa 0,0 l/m 0 min 0 min 39 W/m 12,9 km/h (3 Bft) 97,87 %
06.11.2018 08:38 9,4 C 10,0 C 8,9 C 94 % 1005,7 hPa 0,0 l/m 0 min 0 min 41 W/m 19,3 km/h (3 Bft) 97,85 %
06.11.2018 08:40 9,4 C 10,0 C 8,9 C 94 % 1005,7 hPa 0,0 l/m 0 min 0 min 44 W/m 9,7 km/h (2 Bft) 97,87 %
06.11.2018 08:42 9,4 C 10,0 C 8,9 C 94 % 1005,7 hPa 0,0 l/m 0 min 0 min 45 W/m 9,7 km/h (2 Bft) 97,87 %
06.11.2018 08:44 9,5 C 10,0 C 8,9 C 94 % 1005,7 hPa 0,0 l/m 0 min 0 min 47 W/m 16,1 km/h (3 Bft) 97,87 %
06.11.2018 08:46 9,6 C 10,0 C 9,4 C 94 % 1005,7 hPa 0,0 l/m 0 min 0 min 48 W/m 12,9 km/h (3 Bft) 97,87 %
06.11.2018 08:48 9,6 C 10,0 C 9,4 C 94 % 1005,7 hPa 0,0 l/m 0 min 0 min 50 W/m 16,1 km/h (3 Bft) 95,65 %
06.11.2018 08:50 9,7 C 10,0 C 9,4 C 94 % 1005,5 hPa 0,0 l/m 0 min 0 min 53 W/m 12,9 km/h (3 Bft) 95,74 %
06.11.2018 08:52 9,7 C 10,0 C 9,4 C 94 % 1005,5 hPa 0,0 l/m 0 min 0 min 56 W/m 12,9 km/h (3 Bft) 95,74 %
06.11.2018 08:54 9,7 C 10,6 C 9,4 C 94 % 1005,5 hPa 0,0 l/m 0 min 0 min 61 W/m 12,9 km/h (3 Bft) 97,87 %
06.11.2018 08:56 9,8 C 10,6 C 9,4 C 94 % 1005,4 hPa 0,0 l/m 0 min 0 min 63 W/m 12,9 km/h (3 Bft) 97,87 %
06.11.2018 08:58 9,8 C 10,6 C 9,4 C 94 % 1005,5 hPa 0,0 l/m 0 min 0 min 68 W/m 9,7 km/h (2 Bft) 97,87 %
06.11.2018 09:00 9,8 C 10,6 C 9,4 C 94 % 1005,5 hPa 0,0 l/m 0 min 0 min 81 W/m 16,1 km/h (3 Bft) 97,83 %
06.11.2018 09:02 9,9 C 11,1 C 9,4 C 94 % 1005,6 hPa 0,0 l/m 2 min 0 min 104 W/m 9,7 km/h (2 Bft) 95,92 %
06.11.2018 09:04 9,9 C 11,7 C 9,4 C 94 % 1005,5 hPa 0,0 l/m 2 min 0 min 116 W/m 9,7 km/h (2 Bft) 97,87 %
06.11.2018 09:08 10,0 C 11,7 C 9,4 C 94 % 1005,7 hPa 0,0 l/m 4 min 0 min 109 W/m 16,1 km/h (3 Bft) 96,81 %
06.11.2018 09:10 10,1 C 12,2 C 9,4 C 94 % 1005,7 hPa 0,0 l/m 2 min 0 min 130 W/m 16,1 km/h (3 Bft) 93,48 %
06.11.2018 09:12 10,2 C 12,8 C 9,4 C 94 % 1005,6 hPa 0,0 l/m 2 min 0 min 170 W/m 16,1 km/h (3 Bft) 87,23 %
06.11.2018 09:14 10,2 C 13,3 C 9,4 C 94 % 1005,7 hPa 0,0 l/m 2 min 0 min 181 W/m 19,3 km/h (3 Bft) 93,62 %
06.11.2018 09:16 10,3 C 13,9 C 10,0 C 94 % 1005,6 hPa 0,0 l/m 2 min 0 min 180 W/m 16,1 km/h (3 Bft) 93,62 %
06.11.2018 09:18 10,4 C 14,4 C 10,0 C 94 % 1005,6 hPa 0,0 l/m 2 min 0 min 207 W/m 16,1 km/h (3 Bft) 91,49 %
06.11.2018 09:20 10,5 C 13,9 C 10,0 C 93 % 1005,5 hPa 0,0 l/m 2 min 0 min 188 W/m 22,5 km/h (4 Bft) 91,49 %
06.11.2018 09:22 10,6 C 13,9 C 10,0 C 94 % 1005,6 hPa 0,0 l/m 2 min 0 min 151 W/m 19,3 km/h (3 Bft) 93,48 %
06.11.2018 09:24 10,7 C 13,9 C 10,0 C 93 % 1005,5 hPa 0,0 l/m 2 min 0 min 152 W/m 12,9 km/h (3 Bft) 93,62 %
06.11.2018 09:26 10,8 C 13,9 C 10,0 C 93 % 1005,4 hPa 0,0 l/m 2 min 0 min 159 W/m 16,1 km/h (3 Bft) 93,62 %
06.11.2018 09:28 10,9 C 13,9 C 10,0 C 93 % 1005,5 hPa 0,0 l/m 2 min 0 min 156 W/m 9,7 km/h (2 Bft) 93,62 %
06.11.2018 09:30 11,0 C 13,9 C 10,0 C 93 % 1005,5 hPa 0,0 l/m 2 min 0 min 153 W/m 9,7 km/h (2 Bft) 93,62 %
06.11.2018 09:32 11,1 C 13,9 C 10,0 C 92 % 1005,5 hPa 0,0 l/m 2 min 0 min 154 W/m 9,7 km/h (2 Bft) 95,74 %
06.11.2018 09:34 11,1 C 13,9 C 10,6 C 92 % 1005,5 hPa 0,0 l/m 2 min 0 min 163 W/m 12,9 km/h (3 Bft) 95,65 %
06.11.2018 09:38 11,3 C 14,4 C 10,6 C 92 % 1005,6 hPa 0,0 l/m 4 min 0 min 185 W/m 12,9 km/h (3 Bft) 94,68 %
06.11.2018 09:40 11,4 C 15,0 C 10,6 C 91 % 1005,6 hPa 0,0 l/m 2 min 0 min 225 W/m 9,7 km/h (2 Bft) 95,74 %
06.11.2018 09:42 11,5 C 15,6 C 10,6 C 91 % 1005,6 hPa 0,0 l/m 2 min 0 min 245 W/m 9,7 km/h (2 Bft) 95,74 %
06.11.2018 09:44 11,6 C 15,6 C 10,6 C 91 % 1005,7 hPa 0,0 l/m 2 min 0 min 245 W/m 9,7 km/h (2 Bft) 93,62 %
06.11.2018 09:46 11,7 C 15,0 C 11,1 C 91 % 1005,6 hPa 0,0 l/m 2 min 0 min 271 W/m 19,3 km/h (3 Bft) 93,48 %
06.11.2018 09:48 11,8 C 14,4 C 11,1 C 90 % 1005,5 hPa 0,0 l/m 2 min 0 min 271 W/m 9,7 km/h (2 Bft) 95,74 %
06.11.2018 09:50 11,9 C 13,9 C 11,1 C 90 % 1005,5 hPa 0,0 l/m 2 min 0 min 270 W/m 12,9 km/h (3 Bft) 100,00 %
06.11.2018 09:52 12,0 C 14,4 C 11,1 C 90 % 1005,5 hPa 0,0 l/m 2 min 0 min 260 W/m 12,9 km/h (3 Bft) 100,00 %
06.11.2018 09:54 12,1 C 15,0 C 11,1 C 89 % 1005,5 hPa 0,0 l/m 2 min 0 min 223 W/m 12,9 km/h (3 Bft) 95,74 %
06.11.2018 09:56 12,2 C 15,6 C 11,7 C 89 % 1005,5 hPa 0,0 l/m 2 min 0 min 250 W/m 12,9 km/h (3 Bft) 100,00 %
06.11.2018 09:58 12,3 C 16,7 C 11,7 C 89 % 1005,5 hPa 0,0 l/m 2 min 0 min 302 W/m 16,1 km/h (3 Bft) 97,83 %
06.11.2018 10:00 12,4 C 16,7 C 11,1 C 89 % 1005,4 hPa 0,0 l/m 2 min 0 min 263 W/m 9,7 km/h (2 Bft) 100,00 %
06.11.2018 10:02 12,5 C 16,7 C 11,1 C 88 % 1005,4 hPa 0,0 l/m 2 min 0 min 276 W/m 9,7 km/h (2 Bft) 97,87 %
06.11.2018 10:04 12,6 C 16,7 C 11,1 C 88 % 1005,4 hPa 0,0 l/m 2 min 0 min 299 W/m 9,7 km/h (2 Bft) 97,87 %
06.11.2018 10:08 12,8 C 16,7 C 11,1 C 87 % 1005,5 hPa 0,0 l/m 4 min 0 min 270 W/m 12,9 km/h (3 Bft) 98,95 %
06.11.2018 10:10 12,9 C 16,7 C 11,7 C 87 % 1005,5 hPa 0,0 l/m 2 min 0 min 275 W/m 12,9 km/h (3 Bft) 97,96 %
06.11.2018 10:12 13,0 C 17,2 C 11,7 C 87 % 1005,5 hPa 0,0 l/m 2 min 0 min 252 W/m 6,4 km/h (2 Bft) 100,00 %
06.11.2018 10:14 13,1 C 17,2 C 11,7 C 87 % 1005,5 hPa 0,0 l/m 2 min 0 min 303 W/m 12,9 km/h (3 Bft) 100,00 %
06.11.2018 10:16 13,2 C 17,2 C 11,7 C 86 % 1005,5 hPa 0,0 l/m 2 min 0 min 295 W/m 12,9 km/h (3 Bft) 100,00 %
06.11.2018 10:18 13,3 C 17,8 C 12,2 C 86 % 1005,5 hPa 0,0 l/m 2 min 0 min 311 W/m 22,5 km/h (4 Bft) 100,00 %
06.11.2018 10:20 13,4 C 18,3 C 12,2 C 85 % 1005,4 hPa 0,0 l/m 2 min 0 min 312 W/m 12,9 km/h (3 Bft) 100,00 %
06.11.2018 10:22 13,6 C 18,3 C 12,2 C 85 % 1005,4 hPa 0,0 l/m 2 min 0 min 332 W/m 16,1 km/h (3 Bft) 100,00 %
06.11.2018 10:24 13,7 C 17,8 C 12,2 C 84 % 1005,5 hPa 0,0 l/m 2 min 0 min 292 W/m 19,3 km/h (3 Bft) 100,00 %
06.11.2018 10:26 13,8 C 17,8 C 12,8 C 84 % 1005,5 hPa 0,0 l/m 2 min 0 min 312 W/m 16,1 km/h (3 Bft) 100,00 %
06.11.2018 10:28 13,9 C 17,2 C 12,8 C 83 % 1005,6 hPa 0,0 l/m 2 min 0 min 324 W/m 19,3 km/h (3 Bft) 100,00 %
06.11.2018 10:30 14,1 C 16,7 C 12,8 C 82 % 1005,5 hPa 0,0 l/m 2 min 0 min 271 W/m 19,3 km/h (3 Bft) 100,00 %
06.11.2018 10:32 14,2 C 16,1 C 12,8 C 82 % 1005,5 hPa 0,0 l/m 2 min 0 min 249 W/m 16,1 km/h (3 Bft) 100,00 %
06.11.2018 10:34 14,2 C 15,6 C 12,8 C 81 % 1005,6 hPa 0,0 l/m 2 min 0 min 194 W/m 12,9 km/h (3 Bft) 100,00 %
06.11.2018 10:38 14,3 C 15,6 C 12,8 C 80 % 1005,6 hPa 0,0 l/m 4 min 0 min 207 W/m 16,1 km/h (3 Bft) 100,00 %
06.11.2018 10:40 14,4 C 15,6 C 12,8 C 80 % 1005,6 hPa 0,0 l/m 0 min 0 min 157 W/m 9,7 km/h (2 Bft) 100,00 %
06.11.2018 10:42 14,4 C 15,6 C 12,8 C 80 % 1005,6 hPa 0,0 l/m 2 min 0 min 189 W/m 16,1 km/h (3 Bft) 97,87 %
06.11.2018 10:44 14,5 C 15,6 C 12,8 C 80 % 1005,5 hPa 0,0 l/m 0 min 0 min 136 W/m 19,3 km/h (3 Bft) 100,00 %
06.11.2018 10:46 14,6 C 16,1 C 12,8 C 80 % 1005,5 hPa 0,0 l/m 2 min 0 min 170 W/m 19,3 km/h (3 Bft) 100,00 %
06.11.2018 10:48 14,6 C 16,1 C 12,8 C 80 % 1005,5 hPa 0,0 l/m 2 min 0 min 228 W/m 22,5 km/h (4 Bft) 55,56 %
06.11.2018 10:50 14,6 C 15,6 C 12,8 C 79 % 1005,5 hPa 0,0 l/m 2 min 0 min 212 W/m 22,5 km/h (4 Bft) 97,87 %
06.11.2018 10:52 14,7 C 15,6 C 12,8 C 79 % 1005,5 hPa 0,0 l/m 2 min 0 min 176 W/m 19,3 km/h (3 Bft) 100,00 %
06.11.2018 10:54 14,7 C 15,6 C 12,8 C 79 % 1005,5 hPa 0,0 l/m 2 min 0 min 179 W/m 12,9 km/h (3 Bft) 100,00 %
06.11.2018 10:56 14,7 C 16,1 C 12,8 C 78 % 1005,5 hPa 0,0 l/m 2 min 0 min 267 W/m 12,9 km/h (3 Bft) 100,00 %
06.11.2018 10:58 14,7 C 15,6 C 12,8 C 78 % 1005,5 hPa 0,0 l/m 2 min 0 min 313 W/m 16,1 km/h (3 Bft) 100,00 %
06.11.2018 11:00 14,7 C 15,6 C 13,3 C 78 % 1005,5 hPa 0,0 l/m 2 min 0 min 266 W/m 12,9 km/h (3 Bft) 100,00 %
06.11.2018 11:02 14,8 C 16,1 C 13,3 C 78 % 1005,4 hPa 0,0 l/m 2 min 0 min 239 W/m 9,7 km/h (2 Bft) 100,00 %
06.11.2018 11:04 14,8 C 16,7 C 12,8 C 78 % 1005,4 hPa 0,0 l/m 2 min 0 min 242 W/m 12,9 km/h (3 Bft) 100,00 %
06.11.2018 11:08 14,9 C 19,4 C 12,8 C 79 % 1005,2 hPa 0,0 l/m 4 min 0 min 313 W/m 12,9 km/h (3 Bft) 98,94 %
06.11.2018 11:10 14,9 C 20,0 C 12,8 C 79 % 1005,2 hPa 0,0 l/m 2 min 0 min 400 W/m 9,7 km/h (2 Bft) 100,00 %
06.11.2018 11:12 15,0 C 20,0 C 12,8 C 78 % 1005,2 hPa 0,0 l/m 2 min 0 min 424 W/m 12,9 km/h (3 Bft) 100,00 %
06.11.2018 11:14 15,1 C 20,0 C 12,8 C 77 % 1005,2 hPa 0,0 l/m 2 min 0 min 404 W/m 9,7 km/h (2 Bft) 100,00 %
06.11.2018 11:16 15,2 C 20,6 C 12,8 C 77 % 1005,2 hPa 0,0 l/m 2 min 0 min 401 W/m 12,9 km/h (3 Bft) 97,92 %
06.11.2018 11:18 15,3 C 21,1 C 13,3 C 77 % 1005,2 hPa 0,0 l/m 2 min 0 min 406 W/m 9,7 km/h (2 Bft) 100,00 %
06.11.2018 11:20 15,3 C 21,7 C 13,3 C 77 % 1005,2 hPa 0,0 l/m 2 min 0 min 410 W/m 16,1 km/h (3 Bft) 100,00 %
06.11.2018 11:22 15,4 C 21,1 C 13,3 C 77 % 1005,1 hPa 0,0 l/m 2 min 0 min 385 W/m 9,7 km/h (2 Bft) 100,00 %
06.11.2018 11:24 15,6 C 21,1 C 13,3 C 77 % 1005,2 hPa 0,0 l/m 2 min 0 min 328 W/m 9,7 km/h (2 Bft) 100,00 %
06.11.2018 11:26 15,7 C 21,1 C 13,3 C 76 % 1005,3 hPa 0,0 l/m 2 min 0 min 372 W/m 9,7 km/h (2 Bft) 100,00 %
06.11.2018 11:28 15,8 C 20,0 C 13,3 C 76 % 1005,2 hPa 0,0 l/m 2 min 0 min 370 W/m 19,3 km/h (3 Bft) 100,00 %
06.11.2018 11:30 15,8 C 20,6 C 13,9 C 75 % 1005,3 hPa 0,0 l/m 2 min 0 min 331 W/m 12,9 km/h (3 Bft) 95,74 %
06.11.2018 11:32 15,9 C 20,0 C 13,3 C 76 % 1005,2 hPa 0,0 l/m 2 min 0 min 383 W/m 12,9 km/h (3 Bft) 97,87 %
06.11.2018 11:34 16,0 C 18,9 C 13,3 C 75 % 1005,2 hPa 0,0 l/m 2 min 0 min 383 W/m 9,7 km/h (2 Bft) 95,74 %
06.11.2018 11:38 16,0 C 20,0 C 13,3 C 75 % 1005,1 hPa 0,0 l/m 4 min 0 min 373 W/m 12,9 km/h (3 Bft) 96,81 %
06.11.2018 11:40 16,0 C 19,4 C 13,3 C 74 % 1005,2 hPa 0,0 l/m 2 min 0 min 429 W/m 12,9 km/h (3 Bft) 97,87 %
06.11.2018 11:42 16,1 C 19,4 C 13,9 C 74 % 1005,2 hPa 0,0 l/m 2 min 0 min 427 W/m 22,5 km/h (4 Bft) 97,87 %
06.11.2018 11:44 16,1 C 20,0 C 13,9 C 74 % 1005,1 hPa 0,0 l/m 2 min 0 min 414 W/m 12,9 km/h (3 Bft) 97,83 %
06.11.2018 11:46 16,1 C 20,0 C 13,9 C 74 % 1005,0 hPa 0,0 l/m 2 min 0 min 391 W/m 12,9 km/h (3 Bft) 95,83 %
06.11.2018 11:48 16,1 C 20,0 C 13,3 C 74 % 1005,1 hPa 0,0 l/m 2 min 0 min 398 W/m 16,1 km/h (3 Bft) 95,74 %
06.11.2018 11:50 16,2 C 19,4 C 13,9 C 74 % 1005,0 hPa 0,0 l/m 2 min 0 min 412 W/m 19,3 km/h (3 Bft) 95,74 %
06.11.2018 11:52 16,2 C 20,0 C 13,9 C 74 % 1005,0 hPa 0,0 l/m 2 min 0 min 408 W/m 12,9 km/h (3 Bft) 91,49 %
06.11.2018 11:54 16,2 C 20,6 C 13,9 C 74 % 1005,0 hPa 0,0 l/m 2 min 0 min 399 W/m 16,1 km/h (3 Bft) 93,62 %
06.11.2018 11:56 16,2 C 20,0 C 13,9 C 73 % 1004,9 hPa 0,0 l/m 2 min 0 min 405 W/m 12,9 km/h (3 Bft) 95,65 %
06.11.2018 11:58 16,3 C 20,0 C 13,9 C 73 % 1004,9 hPa 0,0 l/m 2 min 0 min 372 W/m 22,5 km/h (4 Bft) 95,74 %
06.11.2018 12:00 16,3 C 20,0 C 13,9 C 73 % 1004,8 hPa 0,0 l/m 2 min 0 min 364 W/m 19,3 km/h (3 Bft) 95,74 %
06.11.2018 12:02 16,3 C 19,4 C 13,9 C 73 % 1004,8 hPa 0,0 l/m 2 min 0 min 350 W/m 12,9 km/h (3 Bft) 95,83 %
06.11.2018 12:04 16,2 C 19,4 C 13,9 C 73 % 1004,7 hPa 0,0 l/m 2 min 0 min 353 W/m 12,9 km/h (3 Bft) 95,74 %
06.11.2018 12:08 16,3 C 20,6 C 14,4 C 74 % 1004,7 hPa 0,0 l/m 4 min 0 min 388 W/m 12,9 km/h (3 Bft) 95,70 %
06.11.2018 12:10 16,3 C 21,1 C 15,0 C 74 % 1004,7 hPa 0,0 l/m 2 min 0 min 432 W/m 9,7 km/h (2 Bft) 95,74 %
06.11.2018 12:12 16,4 C 21,1 C 16,7 C 74 % 1004,7 hPa 0,0 l/m 2 min 0 min 382 W/m 9,7 km/h (2 Bft) 95,74 %
06.11.2018 12:14 16,4 C 21,1 C 17,2 C 74 % 1004,5 hPa 0,0 l/m 2 min 0 min 384 W/m 12,9 km/h (3 Bft) 97,87 %
06.11.2018 12:16 16,5 C 20,0 C 17,8 C 74 % 1004,6 hPa 0,0 l/m 2 min 0 min 288 W/m 9,7 km/h (2 Bft) 97,87 %
06.11.2018 12:18 16,6 C 19,4 C 17,8 C 73 % 1004,6 hPa 0,0 l/m 2 min 0 min 241 W/m 9,7 km/h (2 Bft) 93,48 %
06.11.2018 12:20 16,6 C 20,0 C 17,2 C 73 % 1004,5 hPa 0,0 l/m 2 min 0 min 314 W/m 9,7 km/h (2 Bft) 97,87 %
06.11.2018 12:22 16,7 C 20,0 C 16,7 C 73 % 1004,5 hPa 0,0 l/m 2 min 0 min 303 W/m 12,9 km/h (3 Bft) 95,74 %
06.11.2018 12:24 16,7 C 20,0 C 16,1 C 73 % 1004,6 hPa 0,0 l/m 2 min 0 min 320 W/m 12,9 km/h (3 Bft) 97,87 %
06.11.2018 12:26 16,7 C 19,4 C 15,6 C 72 % 1004,5 hPa 0,0 l/m 2 min 0 min 305 W/m 16,1 km/h (3 Bft) 97,87 %
06.11.2018 12:28 16,8 C 20,0 C 15,6 C 72 % 1004,5 hPa 0,0 l/m 2 min 0 min 307 W/m 9,7 km/h (2 Bft) 97,87 %
06.11.2018 12:30 16,8 C 20,6 C 15,0 C 72 % 1004,4 hPa 0,0 l/m 2 min 0 min 352 W/m 12,9 km/h (3 Bft) 93,48 %
06.11.2018 12:32 16,8 C 20,6 C 15,0 C 72 % 1004,4 hPa 0,0 l/m 2 min 0 min 321 W/m 9,7 km/h (2 Bft) 95,74 %
06.11.2018 12:34 16,9 C 20,6 C 15,0 C 72 % 1004,3 hPa 0,0 l/m 2 min 0 min 359 W/m 9,7 km/h (2 Bft) 100,00 %
06.11.2018 12:38 17,0 C 21,1 C 15,6 C 72 % 1004,4 hPa 0,0 l/m 4 min 0 min 414 W/m 22,5 km/h (4 Bft) 97,87 %
06.11.2018 12:40 17,1 C 20,6 C 15,6 C 72 % 1004,3 hPa 0,0 l/m 2 min 0 min 327 W/m 9,7 km/h (2 Bft) 95,74 %
06.11.2018 12:42 17,1 C 21,1 C 15,0 C 72 % 1004,2 hPa 0,0 l/m 2 min 0 min 358 W/m 12,9 km/h (3 Bft) 100,00 %
06.11.2018 12:44 17,1 C 21,1 C 15,6 C 72 % 1004,2 hPa 0,0 l/m 2 min 0 min 454 W/m 16,1 km/h (3 Bft) 100,00 %
06.11.2018 12:46 17,2 C 22,2 C 15,6 C 72 % 1004,2 hPa 0,0 l/m 2 min 0 min 436 W/m 9,7 km/h (2 Bft) 100,00 %
06.11.2018 12:48 17,3 C 22,2 C 15,6 C 72 % 1004,2 hPa 0,0 l/m 2 min 0 min 431 W/m 9,7 km/h (2 Bft) 97,87 %
06.11.2018 12:50 17,3 C 22,2 C 15,6 C 71 % 1004,1 hPa 0,0 l/m 2 min 0 min 467 W/m 12,9 km/h (3 Bft) 97,87 %
06.11.2018 12:52 17,4 C 21,7 C 15,6 C 71 % 1004,1 hPa 0,0 l/m 2 min 0 min 391 W/m 9,7 km/h (2 Bft) 100,00 %
06.11.2018 12:54 17,4 C 22,2 C 15,6 C 71 % 1004,0 hPa 0,0 l/m 2 min 0 min 457 W/m 9,7 km/h (2 Bft) 97,83 %
06.11.2018 12:56 17,4 C 22,2 C 15,6 C 70 % 1004,0 hPa 0,0 l/m 2 min 0 min 422 W/m 9,7 km/h (2 Bft) 97,87 %
06.11.2018 12:58 17,5 C 21,7 C 15,6 C 70 % 1003,9 hPa 0,0 l/m 2 min 0 min 386 W/m 12,9 km/h (3 Bft) 93,62 %
06.11.2018 13:00 17,6 C 21,7 C 15,6 C 70 % 1003,9 hPa 0,0 l/m 2 min 0 min 404 W/m 9,7 km/h (2 Bft) 95,74 %
06.11.2018 13:02 17,6 C 22,2 C 15,6 C 70 % 1003,9 hPa 0,0 l/m 2 min 0 min 447 W/m 16,1 km/h (3 Bft) 93,62 %
06.11.2018 13:04 17,7 C 22,8 C 15,6 C 70 % 1003,9 hPa 0,0 l/m 2 min 0 min 426 W/m 12,9 km/h (3 Bft) 95,74 %
06.11.2018 13:08 17,8 C 22,2 C 16,1 C 69 % 1003,9 hPa 0,0 l/m 4 min 0 min 427 W/m 22,5 km/h (4 Bft) 93,55 %
06.11.2018 13:10 17,8 C 22,2 C 16,1 C 69 % 1003,9 hPa 0,0 l/m 2 min 0 min 364 W/m 12,9 km/h (3 Bft) 91,49 %
06.11.2018 13:12 17,9 C 22,2 C 16,1 C 68 % 1003,8 hPa 0,0 l/m 2 min 0 min 388 W/m 22,5 km/h (4 Bft) 85,11 %
06.11.2018 13:14 17,9 C 22,2 C 16,1 C 68 % 1003,9 hPa 0,0 l/m 2 min 0 min 421 W/m 22,5 km/h (4 Bft) 89,36 %
06.11.2018 13:16 18,0 C 22,2 C 16,1 C 68 % 1003,9 hPa 0,0 l/m 2 min 0 min 382 W/m 19,3 km/h (3 Bft) 91,49 %
06.11.2018 13:18 18,1 C 22,8 C 16,1 C 67 % 1003,9 hPa 0,0 l/m 2 min 0 min 443 W/m 19,3 km/h (3 Bft) 84,78 %
06.11.2018 13:20 18,2 C 22,2 C 16,7 C 67 % 1003,9 hPa 0,0 l/m 2 min 0 min 411 W/m 22,5 km/h (4 Bft) 78,72 %
06.11.2018 13:22 18,2 C 23,3 C 16,7 C 68 % 1003,9 hPa 0,0 l/m 2 min 0 min 435 W/m 9,7 km/h (2 Bft) 91,49 %
06.11.2018 13:24 18,3 C 22,8 C 16,1 C 68 % 1003,9 hPa 0,0 l/m 2 min 0 min 412 W/m 9,7 km/h (2 Bft) 93,62 %
06.11.2018 13:26 18,3 C 22,8 C 16,1 C 67 % 1003,9 hPa 0,0 l/m 2 min 0 min 433 W/m 9,7 km/h (2 Bft) 91,49 %
06.11.2018 13:28 18,3 C 22,2 C 16,1 C 68 % 1003,8 hPa 0,0 l/m 2 min 0 min 399 W/m 12,9 km/h (3 Bft) 95,74 %
06.11.2018 13:30 18,3 C 21,7 C 16,1 C 67 % 1003,8 hPa 0,0 l/m 2 min 0 min 375 W/m 12,9 km/h (3 Bft) 97,83 %
06.11.2018 13:32 18,3 C 22,2 C 16,1 C 67 % 1003,7 hPa 0,0 l/m 2 min 0 min 397 W/m 9,7 km/h (2 Bft) 97,87 %
06.11.2018 13:34 18,3 C 22,2 C 16,1 C 68 % 1003,7 hPa 0,0 l/m 2 min 0 min 395 W/m 9,7 km/h (2 Bft) 95,74 %
06.11.2018 13:38 18,3 C 21,1 C 16,1 C 67 % 1003,7 hPa 0,0 l/m 4 min 0 min 319 W/m 19,3 km/h (3 Bft) 95,74 %
06.11.2018 13:40 18,3 C 21,7 C 16,1 C 67 % 1003,7 hPa 0,0 l/m 2 min 0 min 324 W/m 12,9 km/h (3 Bft) 97,87 %
06.11.2018 13:42 18,3 C 21,1 C 16,1 C 67 % 1003,7 hPa 0,0 l/m 2 min 0 min 282 W/m 16,1 km/h (3 Bft) 97,83 %
06.11.2018 13:44 18,3 C 20,6 C 16,1 C 67 % 1003,6 hPa 0,0 l/m 2 min 0 min 286 W/m 16,1 km/h (3 Bft) 97,87 %
06.11.2018 13:46 18,3 C 20,0 C 16,1 C 67 % 1003,6 hPa 0,0 l/m 2 min 0 min 245 W/m 9,7 km/h (2 Bft) 97,87 %
06.11.2018 13:48 18,3 C 20,0 C 16,1 C 67 % 1003,6 hPa 0,0 l/m 2 min 0 min 229 W/m 9,7 km/h (2 Bft) 97,87 %
06.11.2018 13:50 18,3 C 20,0 C 16,1 C 67 % 1003,6 hPa 0,0 l/m 2 min 0 min 222 W/m 12,9 km/h (3 Bft) 97,87 %
06.11.2018 13:52 18,3 C 19,4 C 16,1 C 67 % 1003,6 hPa 0,0 l/m 2 min 0 min 205 W/m 9,7 km/h (2 Bft) 97,83 %
06.11.2018 13:54 18,3 C 19,4 C 15,6 C 67 % 1003,6 hPa 0,0 l/m 2 min 0 min 225 W/m 12,9 km/h (3 Bft) 97,87 %
06.11.2018 13:56 18,2 C 20,0 C 16,1 C 67 % 1003,6 hPa 0,0 l/m 2 min 0 min 272 W/m 16,1 km/h (3 Bft) 97,87 %
06.11.2018 13:58 18,2 C 20,6 C 16,1 C 67 % 1003,6 hPa 0,0 l/m 2 min 0 min 332 W/m 16,1 km/h (3 Bft) 100,00 %
06.11.2018 14:00 18,2 C 20,6 C 16,1 C 67 % 1003,6 hPa 0,0 l/m 2 min 0 min 297 W/m 12,9 km/h (3 Bft) 100,00 %
06.11.2018 14:02 18,2 C 21,1 C 16,1 C 67 % 1003,6 hPa 0,0 l/m 2 min 0 min 362 W/m 12,9 km/h (3 Bft) 95,74 %
06.11.2018 14:04 18,2 C 21,7 C 16,1 C 67 % 1003,6 hPa 0,0 l/m 2 min 0 min 379 W/m 12,9 km/h (3 Bft) 97,87 %
06.11.2018 14:08 18,3 C 22,2 C 16,7 C 67 % 1003,6 hPa 0,0 l/m 4 min 0 min 349 W/m 9,7 km/h (2 Bft) 97,85 %
06.11.2018 14:10 18,3 C 22,2 C 16,1 C 67 % 1003,6 hPa 0,0 l/m 2 min 0 min 286 W/m 9,7 km/h (2 Bft) 97,87 %
06.11.2018 14:12 18,3 C 21,1 C 16,1 C 67 % 1003,7 hPa 0,0 l/m 2 min 0 min 254 W/m 9,7 km/h (2 Bft) 97,87 %
06.11.2018 14:14 18,3 C 21,1 C 16,7 C 67 % 1003,5 hPa 0,0 l/m 2 min 0 min 261 W/m 9,7 km/h (2 Bft) 95,74 %
06.11.2018 14:16 18,4 C 22,2 C 16,7 C 67 % 1003,6 hPa 0,0 l/m 2 min 0 min 360 W/m 9,7 km/h (2 Bft) 97,83 %
06.11.2018 14:18 18,4 C 22,8 C 16,7 C 67 % 1003,6 hPa 0,0 l/m 2 min 0 min 378 W/m 16,1 km/h (3 Bft) 97,87 %
06.11.2018 14:20 18,5 C 23,9 C 16,7 C 67 % 1003,5 hPa 0,0 l/m 2 min 0 min 383 W/m 9,7 km/h (2 Bft) 100,00 %
06.11.2018 14:22 18,6 C 24,4 C 16,1 C 67 % 1003,5 hPa 0,0 l/m 2 min 0 min 372 W/m 6,4 km/h (2 Bft) 97,87 %
06.11.2018 14:24 18,6 C 24,4 C 16,7 C 67 % 1003,5 hPa 0,0 l/m 2 min 0 min 351 W/m 6,4 km/h (2 Bft) 97,87 %
06.11.2018 14:26 18,7 C 23,9 C 16,1 C 67 % 1003,5 hPa 0,0 l/m 2 min 0 min 333 W/m 6,4 km/h (2 Bft) 97,87 %
06.11.2018 14:28 18,7 C 23,3 C 16,1 C 67 % 1003,5 hPa 0,0 l/m 2 min 0 min 281 W/m 6,4 km/h (2 Bft) 97,83 %
06.11.2018 14:30 18,8 C 22,2 C 15,6 C 66 % 1003,4 hPa 0,0 l/m 2 min 0 min 242 W/m 6,4 km/h (2 Bft) 95,74 %
06.11.2018 14:32 18,8 C 21,7 C 15,6 C 66 % 1003,5 hPa 0,0 l/m 2 min 0 min 200 W/m 6,4 km/h (2 Bft) 97,87 %
06.11.2018 14:34 18,8 C 21,1 C 15,6 C 66 % 1003,4 hPa 0,0 l/m 2 min 0 min 175 W/m 6,4 km/h (2 Bft) 95,74 %
06.11.2018 14:38 18,8 C 20,6 C 15,0 C 66 % 1003,4 hPa 0,0 l/m 4 min 0 min 163 W/m 6,4 km/h (2 Bft) 97,87 %
06.11.2018 14:40 18,8 C 19,4 C 15,6 C 66 % 1003,3 hPa 0,0 l/m 0 min 0 min 136 W/m 12,9 km/h (3 Bft) 93,48 %
06.11.2018 14:42 18,8 C 19,4 C 15,6 C 66 % 1003,3 hPa 0,0 l/m 0 min 0 min 114 W/m 9,7 km/h (2 Bft) 95,74 %
06.11.2018 14:44 18,7 C 19,4 C 15,6 C 65 % 1003,3 hPa 0,0 l/m 0 min 0 min 122 W/m 12,9 km/h (3 Bft) 95,74 %
06.11.2018 14:46 18,7 C 19,4 C 15,6 C 65 % 1003,3 hPa 0,0 l/m 2 min 0 min 143 W/m 6,4 km/h (2 Bft) 97,87 %
06.11.2018 14:48 18,7 C 19,4 C 15,6 C 65 % 1003,3 hPa 0,0 l/m 2 min 0 min 153 W/m 6,4 km/h (2 Bft) 97,87 %
06.11.2018 14:50 18,7 C 20,0 C 15,6 C 66 % 1003,2 hPa 0,0 l/m 2 min 0 min 194 W/m 9,7 km/h (2 Bft) 95,74 %
06.11.2018 14:52 18,7 C 20,6 C 16,1 C 66 % 1003,3 hPa 0,0 l/m 2 min 0 min 221 W/m 9,7 km/h (2 Bft) 97,14 %
06.11.2018 14:54 18,7 C 20,6 C 16,1 C 65 % 1003,2 hPa 0,0 l/m 2 min 0 min 195 W/m 9,7 km/h (2 Bft) 97,83 %
06.11.2018 14:56 18,6 C 20,0 C 16,1 C 65 % 1003,2 hPa 0,0 l/m 2 min 0 min 176 W/m 12,9 km/h (3 Bft) 95,74 %
06.11.2018 14:58 18,6 C 19,4 C 16,1 C 65 % 1003,1 hPa 0,0 l/m 2 min 0 min 157 W/m 9,7 km/h (2 Bft) 97,87 %
06.11.2018 15:00 18,6 C 18,9 C 16,1 C 66 % 1003,2 hPa 0,0 l/m 2 min 0 min 127 W/m 12,9 km/h (3 Bft) 95,74 %
06.11.2018 15:02 18,6 C 18,9 C 15,6 C 66 % 1003,1 hPa 0,0 l/m 2 min 0 min 120 W/m 6,4 km/h (2 Bft) 93,62 %
06.11.2018 15:04 18,6 C 18,3 C 16,1 C 66 % 1003,1 hPa 0,0 l/m 0 min 0 min 111 W/m 9,7 km/h (2 Bft) 97,87 %
06.11.2018 15:08 18,5 C 18,3 C 16,1 C 66 % 1003,2 hPa 0,0 l/m 4 min 0 min 119 W/m 9,7 km/h (2 Bft) 96,77 %
06.11.2018 15:10 18,4 C 18,3 C 16,1 C 66 % 1003,3 hPa 0,0 l/m 2 min 0 min 128 W/m 6,4 km/h (2 Bft) 97,87 %
06.11.2018 15:12 18,4 C 18,3 C 15,6 C 67 % 1003,3 hPa 0,0 l/m 2 min 0 min 113 W/m 6,4 km/h (2 Bft) 97,87 %
06.11.2018 15:14 18,4 C 18,3 C 15,6 C 67 % 1003,3 hPa 0,0 l/m 0 min 0 min 97 W/m 6,4 km/h (2 Bft) 95,74 %
06.11.2018 15:16 18,4 C 17,8 C 15,6 C 67 % 1003,3 hPa 0,0 l/m 0 min 0 min 98 W/m 9,7 km/h (2 Bft) 97,87 %
06.11.2018 15:18 18,4 C 17,8 C 15,6 C 67 % 1003,3 hPa 0,0 l/m 0 min 0 min 94 W/m 9,7 km/h (2 Bft) 95,65 %
06.11.2018 15:20 18,3 C 17,8 C 15,6 C 67 % 1003,2 hPa 0,0 l/m 0 min 0 min 90 W/m 9,7 km/h (2 Bft) 98,31 %
06.11.2018 15:22 18,3 C 17,8 C 15,6 C 67 % 1003,2 hPa 0,0 l/m 0 min 0 min 88 W/m 3,2 km/h (1 Bft) 97,14 %
06.11.2018 15:24 18,3 C 17,8 C 15,6 C 67 % 1003,2 hPa 0,0 l/m 0 min 0 min 84 W/m 9,7 km/h (2 Bft) 97,87 %
06.11.2018 15:26 18,3 C 17,8 C 15,6 C 67 % 1003,2 hPa 0,0 l/m 0 min 0 min 80 W/m 9,7 km/h (2 Bft) 97,87 %
06.11.2018 15:28 18,2 C 17,2 C 15,6 C 67 % 1003,3 hPa 0,0 l/m 0 min 0 min 76 W/m 9,7 km/h (2 Bft) 97,87 %
06.11.2018 15:30 18,2 C 17,2 C 15,0 C 67 % 1003,3 hPa 0,0 l/m 0 min 0 min 72 W/m 6,4 km/h (2 Bft) 95,65 %
06.11.2018 15:32 18,2 C 17,2 C 15,0 C 68 % 1003,3 hPa 0,0 l/m 0 min 0 min 72 W/m 6,4 km/h (2 Bft) 100,00 %
06.11.2018 15:34 18,1 C 17,2 C 15,0 C 68 % 1003,4 hPa 0,0 l/m 0 min 0 min 72 W/m 6,4 km/h (2 Bft) 100,00 %
06.11.2018 15:38 18,1 C 17,2 C 15,0 C 68 % 1003,4 hPa 0,0 l/m 0 min 0 min 72 W/m 6,4 km/h (2 Bft) 99,00 %
06.11.2018 15:40 18,1 C 17,2 C 15,0 C 68 % 1003,4 hPa 0,0 l/m 0 min 0 min 70 W/m 3,2 km/h (1 Bft) 100,00 %
06.11.2018 15:42 18,0 C 17,2 C 15,0 C 68 % 1003,4 hPa 0,0 l/m 0 min 0 min 70 W/m 6,4 km/h (2 Bft) 100,00 %
06.11.2018 15:44 17,9 C 17,2 C 15,0 C 68 % 1003,4 hPa 0,0 l/m 0 min 0 min 69 W/m 6,4 km/h (2 Bft) 100,00 %
06.11.2018 15:46 17,9 C 17,2 C 15,0 C 68 % 1003,4 hPa 0,0 l/m 0 min 0 min 68 W/m 12,9 km/h (3 Bft) 95,74 %
06.11.2018 15:48 17,9 C 17,2 C 15,0 C 68 % 1003,4 hPa 0,0 l/m 0 min 0 min 66 W/m 6,4 km/h (2 Bft) 100,00 %
06.11.2018 15:50 17,8 C 16,7 C 15,0 C 68 % 1003,4 hPa 0,0 l/m 0 min 0 min 63 W/m 9,7 km/h (2 Bft) 100,00 %
06.11.2018 15:52 17,8 C 16,7 C 15,0 C 68 % 1003,3 hPa 0,0 l/m 0 min 0 min 62 W/m 6,4 km/h (2 Bft) 100,00 %
06.11.2018 15:54 17,8 C 16,7 C 15,0 C 69 % 1003,4 hPa 0,0 l/m 0 min 0 min 60 W/m 6,4 km/h (2 Bft) 95,74 %
06.11.2018 15:56 17,7 C 16,7 C 15,0 C 68 % 1003,4 hPa 0,0 l/m 0 min 0 min 57 W/m 6,4 km/h (2 Bft) 97,87 %
06.11.2018 15:58 17,7 C 16,7 C 14,4 C 68 % 1003,4 hPa 0,0 l/m 0 min 0 min 55 W/m 3,2 km/h (1 Bft) 100,00 %
06.11.2018 16:00 17,7 C 16,7 C 14,4 C 68 % 1003,4 hPa 0,0 l/m 0 min 0 min 54 W/m 6,4 km/h (2 Bft) 97,87 %
06.11.2018 16:02 17,6 C 16,7 C 14,4 C 69 % 1003,4 hPa 0,0 l/m 0 min 0 min 50 W/m 3,2 km/h (1 Bft) 93,48 %
06.11.2018 16:04 17,6 C 16,7 C 13,9 C 69 % 1003,4 hPa 0,0 l/m 0 min 0 min 46 W/m 3,2 km/h (1 Bft) 95,74 %
06.11.2018 16:08 17,5 C 16,1 C 13,9 C 70 % 1003,3 hPa 0,0 l/m 0 min 0 min 41 W/m 3,2 km/h (1 Bft) 94,68 %
06.11.2018 16:10 17,4 C 15,6 C 13,3 C 70 % 1003,3 hPa 0,0 l/m 0 min 0 min 37 W/m 3,2 km/h (1 Bft) 95,74 %
06.11.2018 16:12 17,4 C 15,6 C 13,3 C 70 % 1003,3 hPa 0,0 l/m 0 min 0 min 34 W/m 3,2 km/h (1 Bft) 97,87 %
06.11.2018 16:14 17,3 C 15,6 C 13,3 C 70 % 1003,3 hPa 0,0 l/m 0 min 0 min 33 W/m 3,2 km/h (1 Bft) 95,65 %
06.11.2018 16:16 17,3 C 15,6 C 12,8 C 70 % 1003,3 hPa 0,0 l/m 0 min 0 min 32 W/m 0,0 km/h (0 Bft) 97,87 %
06.11.2018 16:18 17,3 C 15,6 C 12,8 C 71 % 1003,4 hPa 0,0 l/m 0 min 0 min 30 W/m 0,0 km/h (0 Bft) 95,74 %
06.11.2018 16:20 17,2 C 15,0 C 12,8 C 72 % 1003,4 hPa 0,0 l/m 0 min 0 min 28 W/m 0,0 km/h (0 Bft) 97,87 %
06.11.2018 16:22 17,2 C 15,0 C 12,8 C 72 % 1003,4 hPa 0,0 l/m 0 min 0 min 27 W/m 3,2 km/h (1 Bft) 97,92 %
06.11.2018 16:24 17,1 C 15,0 C 12,8 C 73 % 1003,4 hPa 0,0 l/m 0 min 0 min 26 W/m 0,0 km/h (0 Bft) 95,65 %
06.11.2018 16:26 17,0 C 14,4 C 12,2 C 73 % 1003,4 hPa 0,0 l/m 0 min 0 min 25 W/m 0,0 km/h (0 Bft) 95,74 %
06.11.2018 16:28 16,9 C 14,4 C 12,2 C 74 % 1003,4 hPa 0,0 l/m 0 min 0 min 24 W/m 0,0 km/h (0 Bft) 97,87 %
06.11.2018 16:30 16,8 C 13,9 C 12,2 C 74 % 1003,2 hPa 0,0 l/m 0 min 0 min 23 W/m 0,0 km/h (0 Bft) 97,87 %
06.11.2018 16:32 16,7 C 13,9 C 12,2 C 74 % 1003,3 hPa 0,0 l/m 0 min 0 min 21 W/m 0,0 km/h (0 Bft) 97,87 %
06.11.2018 16:34 16,6 C 13,9 C 12,2 C 75 % 1003,3 hPa 0,0 l/m 0 min 0 min 19 W/m 0,0 km/h (0 Bft) 97,87 %
06.11.2018 16:38 16,3 C 13,3 C 11,7 C 75 % 1003,3 hPa 0,0 l/m 0 min 0 min 16 W/m 0,0 km/h (0 Bft) 96,77 %
06.11.2018 16:40 16,2 C 13,3 C 11,7 C 76 % 1003,3 hPa 0,0 l/m 0 min 0 min 13 W/m 0,0 km/h (0 Bft) 97,87 %
06.11.2018 16:42 16,1 C 13,3 C 11,7 C 76 % 1003,3 hPa 0,0 l/m 0 min 0 min 12 W/m 6,4 km/h (2 Bft) 95,74 %
06.11.2018 16:44 16,0 C 13,3 C 11,7 C 76 % 1003,3 hPa 0,0 l/m 0 min 0 min 11 W/m 3,2 km/h (1 Bft) 100,00 %
06.11.2018 16:46 15,9 C 13,9 C 11,7 C 76 % 1003,3 hPa 0,0 l/m 0 min 0 min 9 W/m 3,2 km/h (1 Bft) 95,74 %
06.11.2018 16:48 15,8 C 13,3 C 11,7 C 76 % 1003,2 hPa 0,0 l/m 0 min 0 min 7 W/m 0,0 km/h (0 Bft) 97,83 %
06.11.2018 16:50 15,7 C 13,3 C 11,7 C 76 % 1003,2 hPa 0,0 l/m 0 min 0 min 7 W/m 3,2 km/h (1 Bft) 97,87 %
06.11.2018 16:52 15,7 C 12,8 C 11,7 C 76 % 1003,3 hPa 0,0 l/m 0 min 0 min 5 W/m 3,2 km/h (1 Bft) 93,62 %
06.11.2018 16:54 15,6 C 13,3 C 11,1 C 77 % 1003,2 hPa 0,0 l/m 0 min 0 min 5 W/m 3,2 km/h (1 Bft) 97,87 %
06.11.2018 16:56 15,5 C 13,3 C 11,1 C 77 % 1003,1 hPa 0,0 l/m 0 min 0 min 0 W/m 3,2 km/h (1 Bft) 97,87 %
06.11.2018 16:58 15,4 C 13,3 C 11,1 C 76 % 1003,1 hPa 0,0 l/m 0 min 0 min 0 W/m 6,4 km/h (2 Bft) 97,87 %
06.11.2018 17:00 15,4 C 13,9 C 11,1 C 76 % 1003,1 hPa 0,0 l/m 0 min 0 min 0 W/m 3,2 km/h (1 Bft) 97,83 %
06.11.2018 17:02 15,3 C 13,9 C 11,1 C 76 % 1003,1 hPa 0,0 l/m 0 min 0 min 0 W/m 3,2 km/h (1 Bft) 95,74 %
06.11.2018 17:04 15,3 C 13,9 C 11,1 C 76 % 1003,2 hPa 0,0 l/m 0 min 0 min 0 W/m 6,4 km/h (2 Bft) 97,87 %
06.11.2018 17:08 15,2 C 13,9 C 11,7 C 76 % 1003,2 hPa 0,0 l/m 0 min 0 min 0 W/m 6,4 km/h (2 Bft) 96,81 %
06.11.2018 17:10 15,2 C 13,9 C 11,1 C 76 % 1003,2 hPa 0,0 l/m 0 min 0 min 0 W/m 3,2 km/h (1 Bft) 97,87 %
06.11.2018 17:12 15,1 C 14,4 C 11,1 C 76 % 1003,3 hPa 0,0 l/m 0 min 0 min 0 W/m 3,2 km/h (1 Bft) 97,83 %
06.11.2018 17:14 15,1 C 13,9 C 11,7 C 76 % 1003,3 hPa 0,0 l/m 0 min 0 min 0 W/m 3,2 km/h (1 Bft) 97,87 %
06.11.2018 17:16 15,1 C 13,9 C 11,7 C 77 % 1003,3 hPa 0,0 l/m 0 min 0 min 0 W/m 6,4 km/h (2 Bft) 97,87 %
06.11.2018 17:18 15,1 C 13,9 C 11,7 C 77 % 1003,4 hPa 0,0 l/m 0 min 0 min 0 W/m 6,4 km/h (2 Bft) 95,74 %
06.11.2018 17:20 15,1 C 13,9 C 11,7 C 77 % 1003,4 hPa 0,0 l/m 0 min 0 min 0 W/m 6,4 km/h (2 Bft) 97,87 %
06.11.2018 17:22 15,0 C 13,9 C 12,2 C 77 % 1003,4 hPa 0,0 l/m 0 min 0 min 0 W/m 6,4 km/h (2 Bft) 97,92 %
06.11.2018 17:24 15,0 C 13,9 C 11,7 C 77 % 1003,3 hPa 0,0 l/m 0 min 0 min 0 W/m 9,7 km/h (2 Bft) 97,83 %
06.11.2018 17:26 14,9 C 13,9 C 11,7 C 77 % 1003,3 hPa 0,0 l/m 0 min 0 min 0 W/m 3,2 km/h (1 Bft) 95,74 %
06.11.2018 17:28 14,9 C 13,9 C 11,7 C 77 % 1003,3 hPa 0,0 l/m 0 min 0 min 0 W/m 3,2 km/h (1 Bft) 95,74 %
06.11.2018 17:30 14,9 C 13,9 C 12,2 C 77 % 1003,3 hPa 0,0 l/m 0 min 0 min 0 W/m 6,4 km/h (2 Bft) 97,87 %
06.11.2018 17:32 14,9 C 13,9 C 12,2 C 77 % 1003,4 hPa 0,0 l/m 0 min 0 min 0 W/m 6,4 km/h (2 Bft) 97,92 %
06.11.2018 17:34 14,9 C 13,9 C 12,8 C 77 % 1003,5 hPa 0,0 l/m 0 min 0 min 0 W/m 12,9 km/h (3 Bft) 97,83 %
06.11.2018 17:38 14,9 C 13,9 C 12,2 C 77 % 1003,4 hPa 0,0 l/m 0 min 0 min 0 W/m 9,7 km/h (2 Bft) 95,74 %
06.11.2018 17:40 14,9 C 13,9 C 12,2 C 77 % 1003,4 hPa 0,0 l/m 0 min 0 min 0 W/m 6,4 km/h (2 Bft) 97,87 %
06.11.2018 17:42 14,8 C 13,9 C 12,2 C 78 % 1003,4 hPa 0,0 l/m 0 min 0 min 0 W/m 6,4 km/h (2 Bft) 95,74 %
06.11.2018 17:44 14,8 C 13,9 C 12,2 C 78 % 1003,4 hPa 0,0 l/m 0 min 0 min 0 W/m 6,4 km/h (2 Bft) 100,00 %
06.11.2018 17:46 14,8 C 13,9 C 12,2 C 78 % 1003,3 hPa 0,0 l/m 0 min 0 min 0 W/m 6,4 km/h (2 Bft) 100,00 %
06.11.2018 17:48 14,8 C 13,9 C 12,2 C 78 % 1003,4 hPa 0,0 l/m 0 min 0 min 0 W/m 6,4 km/h (2 Bft) 100,00 %
06.11.2018 17:50 14,8 C 13,3 C 12,2 C 78 % 1003,4 hPa 0,0 l/m 0 min 0 min 0 W/m 6,4 km/h (2 Bft) 97,87 %
06.11.2018 17:52 14,8 C 13,3 C 12,2 C 78 % 1003,4 hPa 0,0 l/m 0 min 0 min 0 W/m 6,4 km/h (2 Bft) 97,87 %
06.11.2018 17:54 14,7 C 13,3 C 12,2 C 78 % 1003,5 hPa 0,0 l/m 0 min 0 min 0 W/m 6,4 km/h (2 Bft) 100,00 %
06.11.2018 17:56 14,7 C 13,3 C 12,2 C 78 % 1003,5 hPa 0,0 l/m 0 min 0 min 0 W/m 6,4 km/h (2 Bft) 100,00 %
06.11.2018 17:58 14,7 C 13,3 C 12,2 C 78 % 1003,5 hPa 0,0 l/m 0 min 0 min 0 W/m 12,9 km/h (3 Bft) 100,00 %
06.11.2018 18:00 14,7 C 13,3 C 12,2 C 78 % 1003,6 hPa 0,0 l/m 0 min 0 min 0 W/m 9,7 km/h (2 Bft) 97,87 %
06.11.2018 18:02 14,6 C 13,3 C 12,2 C 78 % 1003,6 hPa 0,0 l/m 0 min 0 min 0 W/m 16,1 km/h (3 Bft) 100,00 %
06.11.2018 18:04 14,6 C 13,3 C 12,2 C 78 % 1003,6 hPa 0,0 l/m 0 min 0 min 0 W/m 9,7 km/h (2 Bft) 100,00 %
06.11.2018 18:08 14,6 C 13,3 C 12,2 C 79 % 1003,6 hPa 0,0 l/m 0 min 0 min 0 W/m 9,7 km/h (2 Bft) 98,92 %
06.11.2018 18:10 14,5 C 13,3 C 12,2 C 79 % 1003,7 hPa 0,0 l/m 0 min 0 min 0 W/m 19,3 km/h (3 Bft) 100,00 %
06.11.2018 18:12 14,5 C 13,9 C 12,8 C 79 % 1003,6 hPa 0,0 l/m 0 min 0 min 0 W/m 12,9 km/h (3 Bft) 100,00 %
06.11.2018 18:14 14,5 C 13,3 C 12,8 C 80 % 1003,7 hPa 0,0 l/m 0 min 0 min 0 W/m 9,7 km/h (2 Bft) 100,00 %
06.11.2018 18:16 14,4 C 13,3 C 12,8 C 80 % 1003,7 hPa 0,0 l/m 0 min 0 min 0 W/m 16,1 km/h (3 Bft) 97,87 %
06.11.2018 18:18 14,4 C 13,3 C 12,8 C 80 % 1003,7 hPa 0,0 l/m 0 min 0 min 0 W/m 12,9 km/h (3 Bft) 97,87 %
06.11.2018 18:20 14,4 C 13,3 C 12,8 C 80 % 1003,7 hPa 0,0 l/m 0 min 0 min 0 W/m 16,1 km/h (3 Bft) 95,65 %
06.11.2018 18:22 14,4 C 13,3 C 12,8 C 80 % 1003,7 hPa 0,0 l/m 0 min 0 min 0 W/m 9,7 km/h (2 Bft) 97,87 %
06.11.2018 18:24 14,4 C 13,3 C 12,8 C 80 % 1003,7 hPa 0,0 l/m 0 min 0 min 0 W/m 9,7 km/h (2 Bft) 97,87 %
06.11.2018 18:26 14,4 C 13,3 C 12,8 C 80 % 1003,8 hPa 0,0 l/m 0 min 0 min 0 W/m 12,9 km/h (3 Bft) 97,87 %
06.11.2018 18:28 14,4 C 13,3 C 12,2 C 80 % 1003,8 hPa 0,0 l/m 0 min 0 min 0 W/m 9,7 km/h (2 Bft) 97,87 %
06.11.2018 18:30 14,4 C 13,3 C 12,2 C 80 % 1003,8 hPa 0,0 l/m 0 min 0 min 0 W/m 12,9 km/h (3 Bft) 95,74 %
06.11.2018 18:32 14,3 C 13,3 C 12,2 C 80 % 1003,8 hPa 0,0 l/m 0 min 0 min 0 W/m 6,4 km/h (2 Bft) 93,48 %
06.11.2018 18:34 14,3 C 13,3 C 12,2 C 80 % 1003,8 hPa 0,0 l/m 0 min 0 min 0 W/m 9,7 km/h (2 Bft) 97,87 %
06.11.2018 18:38 14,3 C 13,3 C 12,2 C 80 % 1003,8 hPa 0,0 l/m 0 min 0 min 0 W/m 9,7 km/h (2 Bft) 97,87 %
06.11.2018 18:40 14,3 C 13,3 C 12,8 C 80 % 1003,8 hPa 0,0 l/m 0 min 0 min 0 W/m 6,4 km/h (2 Bft) 93,62 %
06.11.2018 18:42 14,2 C 13,3 C 12,2 C 80 % 1003,8 hPa 0,0 l/m 0 min 0 min 0 W/m 6,4 km/h (2 Bft) 95,74 %
06.11.2018 18:44 14,2 C 13,3 C 12,2 C 80 % 1003,9 hPa 0,0 l/m 0 min 0 min 0 W/m 9,7 km/h (2 Bft) 93,48 %
06.11.2018 18:46 14,2 C 13,3 C 12,2 C 80 % 1004,0 hPa 0,0 l/m 0 min 0 min 0 W/m 6,4 km/h (2 Bft) 95,74 %
06.11.2018 18:48 14,2 C 13,3 C 12,2 C 80 % 1004,0 hPa 0,0 l/m 0 min 0 min 0 W/m 6,4 km/h (2 Bft) 95,74 %
06.11.2018 18:50 14,2 C 12,8 C 12,2 C 80 % 1004,1 hPa 0,0 l/m 0 min 0 min 0 W/m 6,4 km/h (2 Bft) 95,74 %
06.11.2018 18:52 14,2 C 12,8 C 12,2 C 80 % 1004,2 hPa 0,0 l/m 0 min 0 min 0 W/m 3,2 km/h (1 Bft) 97,87 %
06.11.2018 18:54 14,2 C 12,8 C 12,2 C 80 % 1004,1 hPa 0,0 l/m 0 min 0 min 0 W/m 3,2 km/h (1 Bft) 95,74 %
06.11.2018 18:56 14,2 C 12,8 C 12,2 C 80 % 1004,2 hPa 0,0 l/m 0 min 0 min 0 W/m 6,4 km/h (2 Bft) 93,48 %
06.11.2018 18:58 14,2 C 12,8 C 12,2 C 80 % 1004,1 hPa 0,0 l/m 0 min 0 min 0 W/m 6,4 km/h (2 Bft) 95,74 %
06.11.2018 19:00 14,2 C 12,8 C 11,7 C 80 % 1004,1 hPa 0,0 l/m 0 min 0 min 0 W/m 9,7 km/h (2 Bft) 95,74 %
06.11.2018 19:02 14,2 C 12,8 C 12,2 C 80 % 1004,2 hPa 0,0 l/m 0 min 0 min 0 W/m 9,7 km/h (2 Bft) 95,74 %
06.11.2018 19:04 14,1 C 12,8 C 12,2 C 80 % 1004,3 hPa 0,0 l/m 0 min 0 min 0 W/m 6,4 km/h (2 Bft) 95,74 %
06.11.2018 19:08 14,1 C 12,8 C 12,2 C 80 % 1004,2 hPa 0,0 l/m 0 min 0 min 0 W/m 12,9 km/h (3 Bft) 95,70 %
06.11.2018 19:10 14,0 C 12,8 C 12,2 C 80 % 1004,3 hPa 0,0 l/m 0 min 0 min 0 W/m 9,7 km/h (2 Bft) 93,62 %
06.11.2018 19:12 13,9 C 12,8 C 12,2 C 80 % 1004,3 hPa 0,0 l/m 0 min 0 min 0 W/m 9,7 km/h (2 Bft) 95,74 %
06.11.2018 19:14 13,9 C 12,8 C 12,2 C 81 % 1004,3 hPa 0,0 l/m 0 min 0 min 0 W/m 9,7 km/h (2 Bft) 95,74 %
06.11.2018 19:16 13,9 C 12,8 C 12,2 C 81 % 1004,3 hPa 0,0 l/m 0 min 0 min 0 W/m 12,9 km/h (3 Bft) 95,74 %
06.11.2018 19:18 13,9 C 12,8 C 12,2 C 81 % 1004,3 hPa 0,0 l/m 0 min 0 min 0 W/m 9,7 km/h (2 Bft) 95,74 %
06.11.2018 19:20 13,9 C 12,8 C 11,7 C 81 % 1004,4 hPa 0,0 l/m 0 min 0 min 0 W/m 9,7 km/h (2 Bft) 93,48 %
06.11.2018 19:22 13,8 C 12,8 C 12,2 C 81 % 1004,3 hPa 0,0 l/m 0 min 0 min 0 W/m 6,4 km/h (2 Bft) 93,62 %
06.11.2018 19:24 13,8 C 12,8 C 12,2 C 81 % 1004,3 hPa 0,0 l/m 0 min 0 min 0 W/m 9,7 km/h (2 Bft) 100,00 %
06.11.2018 19:26 13,8 C 12,8 C 12,2 C 81 % 1004,3 hPa 0,0 l/m 0 min 0 min 0 W/m 9,7 km/h (2 Bft) 97,87 %
06.11.2018 19:28 13,8 C 12,8 C 12,2 C 81 % 1004,4 hPa 0,0 l/m 0 min 0 min 0 W/m 12,9 km/h (3 Bft) 97,87 %
06.11.2018 19:30 13,7 C 12,8 C 12,2 C 81 % 1004,4 hPa 0,0 l/m 0 min 0 min 0 W/m 12,9 km/h (3 Bft) 100,00 %
06.11.2018 19:32 13,7 C 12,8 C 12,2 C 81 % 1004,4 hPa 0,0 l/m 0 min 0 min 0 W/m 19,3 km/h (3 Bft) 97,87 %
06.11.2018 19:34 13,7 C 12,8 C 12,2 C 81 % 1004,4 hPa 0,0 l/m 0 min 0 min 0 W/m 16,1 km/h (3 Bft) 97,87 %
06.11.2018 19:38 13,6 C 12,8 C 12,2 C 82 % 1004,4 hPa 0,0 l/m 0 min 0 min 0 W/m 16,1 km/h (3 Bft) 95,74 %
06.11.2018 19:40 13,6 C 12,8 C 12,2 C 82 % 1004,3 hPa 0,0 l/m 0 min 0 min 0 W/m 12,9 km/h (3 Bft) 97,87 %
06.11.2018 19:42 13,6 C 12,8 C 12,2 C 82 % 1004,3 hPa 0,0 l/m 0 min 0 min 0 W/m 9,7 km/h (2 Bft) 95,65 %
06.11.2018 19:44 13,6 C 12,8 C 11,7 C 82 % 1004,3 hPa 0,0 l/m 0 min 0 min 0 W/m 16,1 km/h (3 Bft) 100,00 %
06.11.2018 19:46 13,6 C 12,2 C 11,7 C 82 % 1004,3 hPa 0,0 l/m 0 min 0 min 0 W/m 9,7 km/h (2 Bft) 97,87 %
06.11.2018 19:48 13,5 C 12,2 C 11,7 C 82 % 1004,3 hPa 0,0 l/m 0 min 0 min 0 W/m 12,9 km/h (3 Bft) 97,87 %
06.11.2018 19:50 13,5 C 12,2 C 11,7 C 82 % 1004,4 hPa 0,0 l/m 0 min 0 min 0 W/m 9,7 km/h (2 Bft) 97,87 %
06.11.2018 19:52 13,4 C 12,2 C 11,7 C 82 % 1004,4 hPa 0,0 l/m 0 min 0 min 0 W/m 12,9 km/h (3 Bft) 97,92 %
06.11.2018 19:54 13,4 C 12,2 C 11,7 C 82 % 1004,4 hPa 0,0 l/m 0 min 0 min 0 W/m 12,9 km/h (3 Bft) 93,62 %
06.11.2018 19:56 13,4 C 12,2 C 11,7 C 82 % 1004,4 hPa 0,0 l/m 0 min 0 min 0 W/m 16,1 km/h (3 Bft) 95,65 %
06.11.2018 19:58 13,4 C 12,2 C 11,7 C 82 % 1004,5 hPa 0,0 l/m 0 min 0 min 0 W/m 9,7 km/h (2 Bft) 91,49 %
06.11.2018 20:00 13,3 C 12,2 C 11,7 C 82 % 1004,5 hPa 0,0 l/m 0 min 0 min 0 W/m 12,9 km/h (3 Bft) 91,49 %
06.11.2018 20:02 13,3 C 12,2 C 11,7 C 83 % 1004,4 hPa 0,0 l/m 0 min 0 min 0 W/m 12,9 km/h (3 Bft) 93,62 %
06.11.2018 20:04 13,3 C 12,2 C 11,7 C 83 % 1004,5 hPa 0,0 l/m 0 min 0 min 0 W/m 12,9 km/h (3 Bft) 95,74 %
06.11.2018 20:05 13,3 C 12,2 C 11,7 C 83 % 1004,4 hPa 0,0 l/m 0 min 0 min 0 W/m 12,9 km/h (3 Bft) 95,61 %
06.11.2018 20:12 13,2 C 12,2 C 11,7 C 83 % 1004,6 hPa 0,0 l/m 0 min 0 min 0 W/m 12,9 km/h (3 Bft) 91,53 %
06.11.2018 20:14 13,1 C 12,2 C 11,7 C 83 % 1004,5 hPa 0,0 l/m 0 min 0 min 0 W/m 9,7 km/h (2 Bft) 97,87 %
06.11.2018 20:16 13,1 C 12,2 C 11,7 C 83 % 1004,6 hPa 0,0 l/m 0 min 0 min 0 W/m 9,7 km/h (2 Bft) 93,88 %
06.11.2018 20:18 13,1 C 11,7 C 11,1 C 83 % 1004,7 hPa 0,0 l/m 0 min 0 min 0 W/m 12,9 km/h (3 Bft) 100,00 %
06.11.2018 20:20 13,1 C 11,7 C 11,1 C 83 % 1004,7 hPa 0,0 l/m 0 min 0 min 0 W/m 9,7 km/h (2 Bft) 96,55 %
06.11.2018 20:22 13,0 C 11,7 C 11,1 C 84 % 1004,7 hPa 0,0 l/m 0 min 0 min 0 W/m 6,4 km/h (2 Bft) 97,14 %
06.11.2018 20:24 13,0 C 11,7 C 11,1 C 84 % 1004,7 hPa 0,0 l/m 0 min 0 min 0 W/m 9,7 km/h (2 Bft) 97,87 %
06.11.2018 20:26 12,9 C 11,7 C 11,1 C 84 % 1004,7 hPa 0,0 l/m 0 min 0 min 0 W/m 16,1 km/h (3 Bft) 95,74 %
06.11.2018 20:28 12,9 C 11,7 C 11,1 C 84 % 1004,8 hPa 0,0 l/m 0 min 0 min 0 W/m 9,7 km/h (2 Bft) 97,87 %
06.11.2018 20:30 12,9 C 11,7 C 11,1 C 84 % 1004,8 hPa 0,0 l/m 0 min 0 min 0 W/m 19,3 km/h (3 Bft) 97,87 %
06.11.2018 20:32 12,8 C 11,7 C 11,1 C 84 % 1004,7 hPa 0,0 l/m 0 min 0 min 0 W/m 9,7 km/h (2 Bft) 97,83 %
06.11.2018 20:34 12,8 C 11,7 C 11,1 C 84 % 1004,7 hPa 0,0 l/m 0 min 0 min 0 W/m 16,1 km/h (3 Bft) 98,21 %
06.11.2018 20:38 12,8 C 11,7 C 11,1 C 84 % 1004,8 hPa 0,0 l/m 0 min 0 min 0 W/m 9,7 km/h (2 Bft) 95,74 %
06.11.2018 20:40 12,7 C 11,7 C 11,1 C 84 % 1004,8 hPa 0,0 l/m 0 min 0 min 0 W/m 9,7 km/h (2 Bft) 93,88 %
06.11.2018 20:42 12,7 C 11,7 C 11,1 C 85 % 1004,8 hPa 0,0 l/m 0 min 0 min 0 W/m 12,9 km/h (3 Bft) 97,37 %
06.11.2018 20:44 12,7 C 11,7 C 11,1 C 85 % 1004,8 hPa 0,0 l/m 0 min 0 min 0 W/m 9,7 km/h (2 Bft) 98,00 %
06.11.2018 20:46 12,6 C 11,7 C 10,6 C 85 % 1004,8 hPa 0,0 l/m 0 min 0 min 0 W/m 9,7 km/h (2 Bft) 100,00 %
06.11.2018 20:48 12,6 C 11,7 C 11,1 C 85 % 1004,7 hPa 0,0 l/m 0 min 0 min 0 W/m 12,9 km/h (3 Bft) 97,87 %
06.11.2018 20:50 12,6 C 11,7 C 11,1 C 85 % 1004,8 hPa 0,0 l/m 0 min 0 min 0 W/m 9,7 km/h (2 Bft) 97,87 %
06.11.2018 20:52 12,6 C 11,7 C 11,1 C 85 % 1004,8 hPa 0,0 l/m 0 min 0 min 0 W/m 9,7 km/h (2 Bft) 100,00 %
06.11.2018 20:54 12,5 C 11,7 C 11,1 C 85 % 1004,8 hPa 0,0 l/m 0 min 0 min 0 W/m 19,3 km/h (3 Bft) 97,83 %
06.11.2018 20:56 12,5 C 11,7 C 11,1 C 85 % 1004,8 hPa 0,0 l/m 0 min 0 min 0 W/m 9,7 km/h (2 Bft) 95,74 %
06.11.2018 20:58 12,5 C 11,7 C 11,1 C 85 % 1004,8 hPa 0,0 l/m 0 min 0 min 0 W/m 6,4 km/h (2 Bft) 93,62 %
06.11.2018 21:00 12,5 C 11,7 C 11,1 C 85 % 1004,8 hPa 0,0 l/m 0 min 0 min 0 W/m 19,3 km/h (3 Bft) 95,74 %
06.11.2018 21:02 12,4 C 11,7 C 11,1 C 85 % 1004,8 hPa 0,0 l/m 0 min 0 min 0 W/m 16,1 km/h (3 Bft) 97,87 %
06.11.2018 21:04 12,4 C 11,7 C 11,1 C 85 % 1004,8 hPa 0,0 l/m 0 min 0 min 0 W/m 16,1 km/h (3 Bft) 95,65 %
06.11.2018 21:08 12,4 C 11,7 C 11,1 C 86 % 1004,9 hPa 0,0 l/m 0 min 0 min 0 W/m 16,1 km/h (3 Bft) 96,81 %
06.11.2018 21:10 12,4 C 11,7 C 11,1 C 86 % 1004,9 hPa 0,0 l/m 0 min 0 min 0 W/m 9,7 km/h (2 Bft) 100,00 %
06.11.2018 21:12 12,4 C 11,7 C 11,1 C 86 % 1004,8 hPa 0,0 l/m 0 min 0 min 0 W/m 16,1 km/h (3 Bft) 97,87 %
06.11.2018 21:14 12,4 C 11,7 C 11,1 C 86 % 1004,8 hPa 0,0 l/m 0 min 0 min 0 W/m 9,7 km/h (2 Bft) 97,87 %
06.11.2018 21:16 12,4 C 11,7 C 11,1 C 86 % 1004,8 hPa 0,0 l/m 0 min 0 min 0 W/m 6,4 km/h (2 Bft) 97,83 %
06.11.2018 21:18 12,4 C 11,7 C 11,1 C 86 % 1004,8 hPa 0,0 l/m 0 min 0 min 0 W/m 9,7 km/h (2 Bft) 95,74 %
06.11.2018 21:20 12,4 C 11,7 C 11,1 C 86 % 1004,9 hPa 0,0 l/m 0 min 0 min 0 W/m 9,7 km/h (2 Bft) 97,87 %
06.11.2018 21:22 12,4 C 11,7 C 11,1 C 86 % 1004,8 hPa 0,0 l/m 0 min 0 min 0 W/m 16,1 km/h (3 Bft) 97,92 %
06.11.2018 21:24 12,4 C 11,7 C 11,1 C 86 % 1004,7 hPa 0,0 l/m 0 min 0 min 0 W/m 12,9 km/h (3 Bft) 97,87 %
06.11.2018 21:26 12,4 C 11,7 C 11,1 C 86 % 1004,8 hPa 0,0 l/m 0 min 0 min 0 W/m 9,7 km/h (2 Bft) 95,74 %
06.11.2018 21:28 12,4 C 11,7 C 11,1 C 86 % 1004,8 hPa 0,0 l/m 0 min 0 min 0 W/m 9,7 km/h (2 Bft) 97,83 %
06.11.2018 21:30 12,4 C 11,7 C 11,1 C 86 % 1004,7 hPa 0,0 l/m 0 min 0 min 0 W/m 9,7 km/h (2 Bft) 97,87 %
06.11.2018 21:32 12,4 C 11,7 C 11,1 C 86 % 1004,7 hPa 0,0 l/m 0 min 0 min 0 W/m 9,7 km/h (2 Bft) 97,87 %
06.11.2018 21:34 12,4 C 11,7 C 11,1 C 86 % 1004,8 hPa 0,0 l/m 0 min 0 min 0 W/m 12,9 km/h (3 Bft) 97,87 %
06.11.2018 21:38 12,4 C 11,7 C 11,1 C 86 % 1004,9 hPa 0,0 l/m 0 min 0 min 0 W/m 9,7 km/h (2 Bft) 96,84 %
06.11.2018 21:40 12,4 C 11,7 C 11,1 C 86 % 1004,9 hPa 0,0 l/m 0 min 0 min 0 W/m 9,7 km/h (2 Bft) 97,83 %
06.11.2018 21:42 12,4 C 11,7 C 11,1 C 86 % 1004,9 hPa 0,0 l/m 0 min 0 min 0 W/m 9,7 km/h (2 Bft) 97,87 %
06.11.2018 21:44 12,4 C 11,7 C 11,1 C 86 % 1004,9 hPa 0,0 l/m 0 min 0 min 0 W/m 9,7 km/h (2 Bft) 97,87 %
06.11.2018 21:46 12,4 C 11,7 C 11,1 C 86 % 1004,8 hPa 0,0 l/m 0 min 0 min 0 W/m 9,7 km/h (2 Bft) 97,87 %
06.11.2018 21:48 12,4 C 11,7 C 11,1 C 86 % 1004,9 hPa 0,0 l/m 0 min 0 min 0 W/m 9,7 km/h (2 Bft) 97,87 %
06.11.2018 21:50 12,3 C 11,7 C 10,6 C 86 % 1004,9 hPa 0,0 l/m 0 min 0 min 0 W/m 12,9 km/h (3 Bft) 100,00 %
06.11.2018 21:52 12,3 C 11,7 C 11,1 C 87 % 1005,0 hPa 0,0 l/m 0 min 0 min 0 W/m 12,9 km/h (3 Bft) 97,83 %
06.11.2018 21:54 12,3 C 11,7 C 10,6 C 87 % 1005,0 hPa 0,0 l/m 0 min 0 min 0 W/m 9,7 km/h (2 Bft) 100,00 %
06.11.2018 21:56 12,3 C 11,7 C 11,1 C 87 % 1004,9 hPa 0,0 l/m 0 min 0 min 0 W/m 16,1 km/h (3 Bft) 97,87 %
06.11.2018 21:58 12,3 C 11,7 C 11,1 C 87 % 1004,9 hPa 0,0 l/m 0 min 0 min 0 W/m 9,7 km/h (2 Bft) 100,00 %
06.11.2018 22:00 12,3 C 11,7 C 11,1 C 87 % 1004,9 hPa 0,0 l/m 0 min 0 min 0 W/m 12,9 km/h (3 Bft) 100,00 %
06.11.2018 22:02 12,3 C 11,7 C 11,1 C 87 % 1004,9 hPa 0,0 l/m 0 min 0 min 0 W/m 12,9 km/h (3 Bft) 100,00 %
06.11.2018 22:04 12,3 C 11,7 C 10,6 C 87 % 1005,0 hPa 0,0 l/m 0 min 0 min 0 W/m 9,7 km/h (2 Bft) 100,00 %
06.11.2018 22:08 12,3 C 11,1 C 10,6 C 87 % 1005,0 hPa 0,0 l/m 0 min 0 min 0 W/m 12,9 km/h (3 Bft) 97,87 %
06.11.2018 22:10 12,2 C 11,1 C 10,6 C 87 % 1005,1 hPa 0,0 l/m 0 min 0 min 0 W/m 6,4 km/h (2 Bft) 93,62 %
06.11.2018 22:12 12,2 C 11,1 C 10,6 C 87 % 1005,0 hPa 0,0 l/m 0 min 0 min 0 W/m 9,7 km/h (2 Bft) 97,87 %
06.11.2018 22:14 12,2 C 11,1 C 10,6 C 87 % 1005,0 hPa 0,0 l/m 0 min 0 min 0 W/m 9,7 km/h (2 Bft) 97,87 %
06.11.2018 22:16 12,2 C 11,1 C 10,6 C 87 % 1005,0 hPa 0,0 l/m 0 min 0 min 0 W/m 9,7 km/h (2 Bft) 97,83 %
06.11.2018 22:18 12,2 C 11,1 C 10,6 C 87 % 1005,1 hPa 0,0 l/m 0 min 0 min 0 W/m 6,4 km/h (2 Bft) 97,87 %
06.11.2018 22:20 12,2 C 11,1 C 10,6 C 87 % 1005,2 hPa 0,0 l/m 0 min 0 min 0 W/m 9,7 km/h (2 Bft) 97,87 %
06.11.2018 22:22 12,2 C 11,1 C 10,6 C 87 % 1005,1 hPa 0,0 l/m 0 min 0 min 0 W/m 16,1 km/h (3 Bft) 95,74 %
06.11.2018 22:24 12,2 C 11,1 C 10,6 C 87 % 1005,3 hPa 0,0 l/m 0 min 0 min 0 W/m 9,7 km/h (2 Bft) 97,87 %
06.11.2018 22:26 12,2 C 11,1 C 10,6 C 87 % 1005,2 hPa 0,0 l/m 0 min 0 min 0 W/m 12,9 km/h (3 Bft) 97,83 %
06.11.2018 22:28 12,1 C 11,1 C 10,6 C 87 % 1005,2 hPa 0,0 l/m 0 min 0 min 0 W/m 9,7 km/h (2 Bft) 97,87 %
06.11.2018 22:30 12,1 C 11,1 C 10,6 C 87 % 1005,2 hPa 0,0 l/m 0 min 0 min 0 W/m 12,9 km/h (3 Bft) 95,74 %
06.11.2018 22:32 12,1 C 11,1 C 10,6 C 88 % 1005,2 hPa 0,0 l/m 0 min 0 min 0 W/m 12,9 km/h (3 Bft) 95,74 %
06.11.2018 22:34 12,1 C 11,1 C 10,6 C 88 % 1005,2 hPa 0,0 l/m 0 min 0 min 0 W/m 9,7 km/h (2 Bft) 97,87 %
06.11.2018 22:38 12,1 C 11,1 C 10,6 C 88 % 1005,2 hPa 0,0 l/m 0 min 0 min 0 W/m 9,7 km/h (2 Bft) 96,77 %
06.11.2018 22:40 12,0 C 11,1 C 10,6 C 88 % 1005,2 hPa 0,0 l/m 0 min 0 min 0 W/m 9,7 km/h (2 Bft) 95,74 %
06.11.2018 22:42 12,0 C 11,1 C 10,6 C 88 % 1005,2 hPa 0,0 l/m 0 min 0 min 0 W/m 9,7 km/h (2 Bft) 95,74 %
06.11.2018 22:44 12,0 C 11,1 C 10,6 C 88 % 1005,1 hPa 0,0 l/m 0 min 0 min 0 W/m 12,9 km/h (3 Bft) 89,36 %
06.11.2018 22:46 12,0 C 11,1 C 10,6 C 88 % 1005,1 hPa 0,0 l/m 0 min 0 min 0 W/m 9,7 km/h (2 Bft) 91,49 %
06.11.2018 22:48 11,9 C 11,1 C 10,6 C 88 % 1005,2 hPa 0,0 l/m 0 min 0 min 0 W/m 12,9 km/h (3 Bft) 82,98 %
06.11.2018 22:50 11,9 C 11,1 C 10,6 C 88 % 1005,2 hPa 0,0 l/m 0 min 0 min 0 W/m 12,9 km/h (3 Bft) 89,13 %
06.11.2018 22:52 11,9 C 11,1 C 10,6 C 88 % 1005,1 hPa 0,0 l/m 0 min 0 min 0 W/m 9,7 km/h (2 Bft) 89,36 %
06.11.2018 22:54 11,9 C 11,1 C 10,6 C 88 % 1005,1 hPa 0,0 l/m 0 min 0 min 0 W/m 9,7 km/h (2 Bft) 91,49 %
06.11.2018 22:56 11,9 C 11,1 C 10,6 C 88 % 1005,2 hPa 0,0 l/m 0 min 0 min 0 W/m 12,9 km/h (3 Bft) 87,23 %
06.11.2018 22:58 11,9 C 11,1 C 10,6 C 88 % 1005,1 hPa 0,0 l/m 0 min 0 min 0 W/m 9,7 km/h (2 Bft) 87,23 %
06.11.2018 23:00 11,8 C 11,1 C 10,6 C 88 % 1005,2 hPa 0,0 l/m 0 min 0 min 0 W/m 19,3 km/h (3 Bft) 91,30 %
06.11.2018 23:02 11,8 C 11,1 C 10,6 C 88 % 1005,1 hPa 0,0 l/m 0 min 0 min 0 W/m 16,1 km/h (3 Bft) 93,62 %
06.11.2018 23:04 11,8 C 11,1 C 10,6 C 88 % 1005,2 hPa 0,0 l/m 0 min 0 min 0 W/m 16,1 km/h (3 Bft) 95,74 %
06.11.2018 23:08 11,8 C 10,6 C 10,0 C 88 % 1005,2 hPa 0,0 l/m 0 min 0 min 0 W/m 12,9 km/h (3 Bft) 94,68 %
06.11.2018 23:10 11,7 C 10,6 C 10,0 C 88 % 1005,2 hPa 0,0 l/m 0 min 0 min 0 W/m 9,7 km/h (2 Bft) 93,62 %
06.11.2018 23:12 11,7 C 10,6 C 10,0 C 88 % 1005,3 hPa 0,0 l/m 0 min 0 min 0 W/m 9,7 km/h (2 Bft) 93,62 %
06.11.2018 23:14 11,7 C 10,6 C 10,0 C 88 % 1005,4 hPa 0,0 l/m 0 min 0 min 0 W/m 12,9 km/h (3 Bft) 97,83 %
06.11.2018 23:16 11,7 C 10,6 C 10,0 C 88 % 1005,3 hPa 0,0 l/m 0 min 0 min 0 W/m 19,3 km/h (3 Bft) 97,87 %
06.11.2018 23:18 11,7 C 10,6 C 10,0 C 88 % 1005,4 hPa 0,0 l/m 0 min 0 min 0 W/m 19,3 km/h (3 Bft) 97,87 %
06.11.2018 23:20 11,6 C 10,6 C 10,0 C 88 % 1005,1 hPa 0,0 l/m 0 min 0 min 0 W/m 16,1 km/h (3 Bft) 95,74 %
06.11.2018 23:22 11,6 C 10,6 C 10,0 C 89 % 1005,2 hPa 0,0 l/m 0 min 0 min 0 W/m 16,1 km/h (3 Bft) 95,74 %
06.11.2018 23:24 11,6 C 10,6 C 10,0 C 89 % 1005,3 hPa 0,0 l/m 0 min 0 min 0 W/m 12,9 km/h (3 Bft) 97,83 %
06.11.2018 23:26 11,6 C 10,6 C 10,0 C 89 % 1005,2 hPa 0,0 l/m 0 min 0 min 0 W/m 9,7 km/h (2 Bft) 95,74 %
06.11.2018 23:28 11,5 C 10,6 C 10,0 C 89 % 1005,2 hPa 0,0 l/m 0 min 0 min 0 W/m 12,9 km/h (3 Bft) 97,87 %
06.11.2018 23:30 11,5 C 10,6 C 10,0 C 89 % 1005,2 hPa 0,0 l/m 0 min 0 min 0 W/m 12,9 km/h (3 Bft) 95,74 %
06.11.2018 23:32 11,5 C 10,6 C 10,0 C 89 % 1005,2 hPa 0,0 l/m 0 min 0 min 0 W/m 9,7 km/h (2 Bft) 95,74 %
06.11.2018 23:34 11,4 C 10,6 C 10,0 C 89 % 1005,2 hPa 0,0 l/m 0 min 0 min 0 W/m 9,7 km/h (2 Bft) 97,87 %
06.11.2018 23:38 11,4 C 10,6 C 10,0 C 89 % 1005,2 hPa 0,0 l/m 0 min 0 min 0 W/m 12,9 km/h (3 Bft) 98,92 %
06.11.2018 23:40 11,4 C 10,6 C 10,0 C 89 % 1005,3 hPa 0,0 l/m 0 min 0 min 0 W/m 9,7 km/h (2 Bft) 95,74 %
06.11.2018 23:42 11,3 C 10,6 C 10,0 C 89 % 1005,3 hPa 0,0 l/m 0 min 0 min 0 W/m 9,7 km/h (2 Bft) 93,62 %
06.11.2018 23:44 11,3 C 10,6 C 10,0 C 89 % 1005,3 hPa 0,0 l/m 0 min 0 min 0 W/m 16,1 km/h (3 Bft) 97,87 %
06.11.2018 23:46 11,3 C 10,6 C 10,0 C 89 % 1005,4 hPa 0,0 l/m 0 min 0 min 0 W/m 12,9 km/h (3 Bft) 97,87 %
06.11.2018 23:48 11,3 C 10,0 C 10,0 C 89 % 1005,4 hPa 0,0 l/m 0 min 0 min 0 W/m 16,1 km/h (3 Bft) 95,65 %
06.11.2018 23:50 11,3 C 10,0 C 10,0 C 89 % 1005,3 hPa 0,0 l/m 0 min 0 min 0 W/m 16,1 km/h (3 Bft) 97,87 %
06.11.2018 23:52 11,2 C 10,0 C 10,0 C 89 % 1005,4 hPa 0,0 l/m 0 min 0 min 0 W/m 12,9 km/h (3 Bft) 97,87 %
06.11.2018 23:54 11,2 C 10,0 C 10,0 C 90 % 1005,4 hPa 0,0 l/m 0 min 0 min 0 W/m 9,7 km/h (2 Bft) 95,74 %
06.11.2018 23:56 11,2 C 10,0 C 10,0 C 90 % 1005,4 hPa 0,0 l/m 0 min 0 min 0 W/m 19,3 km/h (3 Bft) 97,87 %
06.11.2018 23:58 11,2 C 10,0 C 10,0 C 90 % 1005,3 hPa 0,0 l/m 0 min 0 min 0 W/m 9,7 km/h (2 Bft) 95,74 %
_ Min-Zeit 02:38 01:34 01:46 14:44 14:58 - - - - 04:12 10:48
Minimum _ 8,6 C 7,8 C 7,2 C 65 % 1003,1 hPa - - - - 0,0 km/h (0 Bft) 55,56 %
_ Max-Zeit 14:30 14:22 12:16 02:56 08:30 00:00 09:08 00:00 12:50 02:58 00:34
Maximum _ 18,8 C 24,4 C 17,8 C 96 % 1005,7 hPa 0,0 l/m 4 min 0 min 467 W/m 22,5 km/h
O (4 Bft)
100,00 %
Durchschnitt _ 12,7 C 12,9 C 11,0 C 85 % 1004,5 hPa #0,0 l/m #6:00 h #0 min. 210 W/m 10,8 km/h (2 Bft) 97,09 %
© 2018 W. Hausmann